<?xml version='1.0' encoding='UTF-8'?><gpx version="1.1" creator="JPX - https://github.com/jenetics/jpx" xmlns="http://www.topografix.com/GPX/1/1"><trk><trkseg><trkpt lat="46.0474667" lon="12.93273"><ele>88.75</ele><time>2026-04-04T09:44:51.288Z</time></trkpt><trkpt lat="46.0473817" lon="12.93267"><ele>88.5</ele><time>2026-04-04T09:44:52.292Z</time></trkpt><trkpt lat="46.04727" lon="12.932635"><ele>88.25</ele><time>2026-04-04T09:44:53.291Z</time></trkpt><trkpt lat="46.047145" lon="12.9326183"><ele>88.0</ele><time>2026-04-04T09:44:54.289Z</time></trkpt><trkpt lat="46.04703" lon="12.932615"><ele>88.0</ele><time>2026-04-04T09:44:55.288Z</time></trkpt><trkpt lat="46.046925" lon="12.93262"><ele>88.0</ele><time>2026-04-04T09:44:56.29Z</time></trkpt><trkpt lat="46.0468283" lon="12.9326367"><ele>88.0</ele><time>2026-04-04T09:44:57.291Z</time></trkpt><trkpt lat="46.046735" lon="12.9326583"><ele>88.0</ele><time>2026-04-04T09:44:58.289Z</time></trkpt><trkpt lat="46.046635" lon="12.9326833"><ele>88.0</ele><time>2026-04-04T09:44:59.289Z</time></trkpt><trkpt lat="46.0465467" lon="12.9327183"><ele>87.83333333333333</ele><time>2026-04-04T09:45:00.291Z</time></trkpt><trkpt lat="46.04646" lon="12.9327467"><ele>87.66666666666666</ele><time>2026-04-04T09:45:01.289Z</time></trkpt><trkpt lat="46.046385" lon="12.9327483"><ele>87.5</ele><time>2026-04-04T09:45:02.291Z</time></trkpt><trkpt lat="46.0463167" lon="12.9327133"><ele>87.33333333333333</ele><time>2026-04-04T09:45:03.285Z</time></trkpt><trkpt lat="46.04624" lon="12.93268"><ele>87.16666666666667</ele><time>2026-04-04T09:45:04.288Z</time></trkpt><trkpt lat="46.0461617" lon="12.9326167"><ele>87.0</ele><time>2026-04-04T09:45:05.286Z</time></trkpt><trkpt lat="46.046105" lon="12.93256"><ele>87.0</ele><time>2026-04-04T09:45:06.289Z</time></trkpt><trkpt lat="46.0460267" lon="12.9324767"><ele>87.0</ele><time>2026-04-04T09:45:08.289Z</time></trkpt><trkpt lat="46.045955" lon="12.9324"><ele>87.0</ele><time>2026-04-04T09:45:43.287Z</time></trkpt><trkpt lat="46.0458933" lon="12.9323533"><ele>87.0</ele><time>2026-04-04T09:45:44.289Z</time></trkpt><trkpt lat="46.0458133" lon="12.9322933"><ele>87.0</ele><time>2026-04-04T09:45:45.289Z</time></trkpt><trkpt lat="46.045735" lon="12.9322267"><ele>87.0</ele><time>2026-04-04T09:45:46.293Z</time></trkpt><trkpt lat="46.04566" lon="12.9321717"><ele>87.0</ele><time>2026-04-04T09:45:47.287Z</time></trkpt><trkpt lat="46.0455867" lon="12.9321183"><ele>87.0</ele><time>2026-04-04T09:45:48.288Z</time></trkpt><trkpt lat="46.0455067" lon="12.9320617"><ele>87.0</ele><time>2026-04-04T09:45:49.289Z</time></trkpt><trkpt lat="46.04543" lon="12.932005"><ele>87.0</ele><time>2026-04-04T09:45:50.292Z</time></trkpt><trkpt lat="46.0453517" lon="12.9319517"><ele>87.0</ele><time>2026-04-04T09:45:51.287Z</time></trkpt><trkpt lat="46.0452683" lon="12.931905"><ele>87.0</ele><time>2026-04-04T09:45:52.291Z</time></trkpt><trkpt lat="46.0451683" lon="12.93186"><ele>87.0</ele><time>2026-04-04T09:45:53.293Z</time></trkpt><trkpt lat="46.04506" lon="12.931805"><ele>87.0</ele><time>2026-04-04T09:45:54.288Z</time></trkpt><trkpt lat="46.044955" lon="12.931745"><ele>87.0</ele><time>2026-04-04T09:45:55.288Z</time></trkpt><trkpt lat="46.0448533" lon="12.9316717"><ele>87.0</ele><time>2026-04-04T09:45:56.294Z</time></trkpt><trkpt lat="46.04475" lon="12.931585"><ele>86.5</ele><time>2026-04-04T09:45:57.29Z</time></trkpt><trkpt lat="46.0446417" lon="12.9314967"><ele>86.0</ele><time>2026-04-04T09:45:58.292Z</time></trkpt><trkpt lat="46.04453" lon="12.9314167"><ele>85.5</ele><time>2026-04-04T09:45:59.293Z</time></trkpt><trkpt lat="46.0444233" lon="12.9313383"><ele>85.0</ele><time>2026-04-04T09:46:00.288Z</time></trkpt><trkpt lat="46.04432" lon="12.93127"><ele>85.0</ele><time>2026-04-04T09:46:01.294Z</time></trkpt><trkpt lat="46.0442217" lon="12.9312017"><ele>85.0</ele><time>2026-04-04T09:46:02.288Z</time></trkpt><trkpt lat="46.04413" lon="12.931135"><ele>85.0</ele><time>2026-04-04T09:46:03.29Z</time></trkpt><trkpt lat="46.0440383" lon="12.9310717"><ele>85.0</ele><time>2026-04-04T09:46:04.29Z</time></trkpt><trkpt lat="46.0439483" lon="12.9310033"><ele>85.0</ele><time>2026-04-04T09:46:05.289Z</time></trkpt><trkpt lat="46.0438583" lon="12.9309383"><ele>84.8</ele><time>2026-04-04T09:46:06.291Z</time></trkpt><trkpt lat="46.0437667" lon="12.9308733"><ele>84.6</ele><time>2026-04-04T09:46:07.29Z</time></trkpt><trkpt lat="46.0436667" lon="12.9308067"><ele>84.4</ele><time>2026-04-04T09:46:08.292Z</time></trkpt><trkpt lat="46.0435567" lon="12.9307617"><ele>84.2</ele><time>2026-04-04T09:46:09.289Z</time></trkpt><trkpt lat="46.0434433" lon="12.9307367"><ele>84.0</ele><time>2026-04-04T09:46:10.289Z</time></trkpt><trkpt lat="46.04333" lon="12.93073"><ele>83.6</ele><time>2026-04-04T09:46:11.289Z</time></trkpt><trkpt lat="46.0432183" lon="12.9307333"><ele>83.2</ele><time>2026-04-04T09:46:12.29Z</time></trkpt><trkpt lat="46.0431167" lon="12.9307367"><ele>82.8</ele><time>2026-04-04T09:46:13.289Z</time></trkpt><trkpt lat="46.04302" lon="12.930745"><ele>82.39999999999999</ele><time>2026-04-04T09:46:14.29Z</time></trkpt><trkpt lat="46.0429233" lon="12.9307517"><ele>82.0</ele><time>2026-04-04T09:46:15.292Z</time></trkpt><trkpt lat="46.042825" lon="12.9307483"><ele>82.0</ele><time>2026-04-04T09:46:16.287Z</time></trkpt><trkpt lat="46.0427267" lon="12.93074"><ele>82.0</ele><time>2026-04-04T09:46:17.294Z</time></trkpt><trkpt lat="46.042635" lon="12.930735"><ele>82.0</ele><time>2026-04-04T09:46:18.29Z</time></trkpt><trkpt lat="46.0425483" lon="12.930725"><ele>82.0</ele><time>2026-04-04T09:46:19.293Z</time></trkpt><trkpt lat="46.042465" lon="12.930705"><ele>82.0</ele><time>2026-04-04T09:46:20.29Z</time></trkpt><trkpt lat="46.0423833" lon="12.9306733"><ele>82.0</ele><time>2026-04-04T09:46:21.287Z</time></trkpt><trkpt lat="46.042295" lon="12.9306383"><ele>81.83333333333333</ele><time>2026-04-04T09:46:22.289Z</time></trkpt><trkpt lat="46.0422033" lon="12.9306117"><ele>81.66666666666666</ele><time>2026-04-04T09:46:23.29Z</time></trkpt><trkpt lat="46.0421117" lon="12.9306017"><ele>81.5</ele><time>2026-04-04T09:46:24.288Z</time></trkpt><trkpt lat="46.0420283" lon="12.930605"><ele>81.33333333333333</ele><time>2026-04-04T09:46:25.288Z</time></trkpt><trkpt lat="46.0419517" lon="12.930625"><ele>81.16666666666667</ele><time>2026-04-04T09:46:26.287Z</time></trkpt><trkpt lat="46.0418767" lon="12.93065"><ele>81.0</ele><time>2026-04-04T09:46:27.288Z</time></trkpt><trkpt lat="46.0418017" lon="12.930685"><ele>81.0</ele><time>2026-04-04T09:46:28.289Z</time></trkpt><trkpt lat="46.0417267" lon="12.9307317"><ele>81.0</ele><time>2026-04-04T09:46:29.288Z</time></trkpt><trkpt lat="46.0416567" lon="12.930785"><ele>81.0</ele><time>2026-04-04T09:46:30.288Z</time></trkpt><trkpt lat="46.0415867" lon="12.9308317"><ele>81.0</ele><time>2026-04-04T09:46:31.289Z</time></trkpt><trkpt lat="46.0415117" lon="12.93086"><ele>81.0</ele><time>2026-04-04T09:46:32.291Z</time></trkpt><trkpt lat="46.04143" lon="12.9308667"><ele>81.0</ele><time>2026-04-04T09:46:33.294Z</time></trkpt><trkpt lat="46.04135" lon="12.93084"><ele>81.0</ele><time>2026-04-04T09:46:34.289Z</time></trkpt><trkpt lat="46.0412683" lon="12.9308117"><ele>81.0</ele><time>2026-04-04T09:46:35.288Z</time></trkpt><trkpt lat="46.041195" lon="12.9307933"><ele>81.0</ele><time>2026-04-04T09:46:36.291Z</time></trkpt><trkpt lat="46.04112" lon="12.9307917"><ele>81.0</ele><time>2026-04-04T09:46:37.287Z</time></trkpt><trkpt lat="46.0410433" lon="12.930795"><ele>81.0</ele><time>2026-04-04T09:46:38.289Z</time></trkpt><trkpt lat="46.0409667" lon="12.93082"><ele>81.0</ele><time>2026-04-04T09:46:39.29Z</time></trkpt><trkpt lat="46.0408967" lon="12.9308617"><ele>81.6</ele><time>2026-04-04T09:46:40.289Z</time></trkpt><trkpt lat="46.040835" lon="12.9309167"><ele>82.19999999999999</ele><time>2026-04-04T09:46:41.29Z</time></trkpt><trkpt lat="46.0407383" lon="12.931025"><ele>82.80000000000001</ele><time>2026-04-04T09:46:43.288Z</time></trkpt><trkpt lat="46.0406583" lon="12.93111"><ele>83.4</ele><time>2026-04-04T09:46:45.289Z</time></trkpt><trkpt lat="46.0406033" lon="12.9311917"><ele>84.0</ele><time>2026-04-04T09:46:47.287Z</time></trkpt><trkpt lat="46.0405617" lon="12.931295"><ele>84.0</ele><time>2026-04-04T09:46:49.29Z</time></trkpt><trkpt lat="46.0405" lon="12.93138"><ele>84.0</ele><time>2026-04-04T09:46:51.289Z</time></trkpt><trkpt lat="46.04039" lon="12.9314567"><ele>84.0</ele><time>2026-04-04T09:46:53.292Z</time></trkpt><trkpt lat="46.04033" lon="12.931525"><ele>84.0</ele><time>2026-04-04T09:46:54.291Z</time></trkpt><trkpt lat="46.04027" lon="12.9316033"><ele>84.0</ele><time>2026-04-04T09:46:55.286Z</time></trkpt><trkpt lat="46.0402167" lon="12.93172"><ele>84.0</ele><time>2026-04-04T09:46:56.288Z</time></trkpt><trkpt lat="46.0401733" lon="12.931875"><ele>84.0</ele><time>2026-04-04T09:46:57.289Z</time></trkpt><trkpt lat="46.0401333" lon="12.932045"><ele>84.0</ele><time>2026-04-04T09:46:58.286Z</time></trkpt><trkpt lat="46.0400867" lon="12.93221"><ele>84.0</ele><time>2026-04-04T09:46:59.29Z</time></trkpt><trkpt lat="46.0400483" lon="12.9323783"><ele>84.0</ele><time>2026-04-04T09:47:00.293Z</time></trkpt><trkpt lat="46.0400083" lon="12.9325583"><ele>84.0</ele><time>2026-04-04T09:47:01.288Z</time></trkpt><trkpt lat="46.0399633" lon="12.93276"><ele>84.0</ele><time>2026-04-04T09:47:02.291Z</time></trkpt><trkpt lat="46.0399183" lon="12.9329667"><ele>84.0</ele><time>2026-04-04T09:47:03.286Z</time></trkpt><trkpt lat="46.039875" lon="12.9331683"><ele>84.0</ele><time>2026-04-04T09:47:04.29Z</time></trkpt><trkpt lat="46.03984" lon="12.9333633"><ele>84.0</ele><time>2026-04-04T09:47:05.289Z</time></trkpt><trkpt lat="46.0398033" lon="12.9335467"><ele>84.0</ele><time>2026-04-04T09:47:06.288Z</time></trkpt><trkpt lat="46.0397683" lon="12.9337183"><ele>84.0</ele><time>2026-04-04T09:47:07.289Z</time></trkpt><trkpt lat="46.039735" lon="12.9338783"><ele>84.0</ele><time>2026-04-04T09:47:08.289Z</time></trkpt><trkpt lat="46.039705" lon="12.9340267"><ele>84.0</ele><time>2026-04-04T09:47:09.29Z</time></trkpt><trkpt lat="46.03967" lon="12.9341633"><ele>84.0</ele><time>2026-04-04T09:47:10.287Z</time></trkpt><trkpt lat="46.03964" lon="12.9342883"><ele>84.0</ele><time>2026-04-04T09:47:11.29Z</time></trkpt><trkpt lat="46.039615" lon="12.9344"><ele>84.0</ele><time>2026-04-04T09:47:12.292Z</time></trkpt><trkpt lat="46.0395933" lon="12.9344967"><ele>84.0</ele><time>2026-04-04T09:47:13.287Z</time></trkpt><trkpt lat="46.03956" lon="12.9346367"><ele>84.0</ele><time>2026-04-04T09:47:15.293Z</time></trkpt><trkpt lat="46.0395383" lon="12.934735"><ele>84.0</ele><time>2026-04-04T09:47:17.292Z</time></trkpt><trkpt lat="46.0394383" lon="12.93481"><ele>84.0</ele><time>2026-04-04T09:47:25.289Z</time></trkpt><trkpt lat="46.0393483" lon="12.9348283"><ele>84.0</ele><time>2026-04-04T09:47:26.289Z</time></trkpt><trkpt lat="46.0392317" lon="12.9348567"><ele>83.5</ele><time>2026-04-04T09:47:27.29Z</time></trkpt><trkpt lat="46.0391033" lon="12.9348833"><ele>83.0</ele><time>2026-04-04T09:47:28.288Z</time></trkpt><trkpt lat="46.0389683" lon="12.9349117"><ele>82.5</ele><time>2026-04-04T09:47:29.29Z</time></trkpt><trkpt lat="46.0388267" lon="12.934945"><ele>82.0</ele><time>2026-04-04T09:47:30.292Z</time></trkpt><trkpt lat="46.038675" lon="12.934975"><ele>82.0</ele><time>2026-04-04T09:47:31.289Z</time></trkpt><trkpt lat="46.0385183" lon="12.9350033"><ele>82.0</ele><time>2026-04-04T09:47:32.29Z</time></trkpt><trkpt lat="46.0383517" lon="12.9350367"><ele>82.0</ele><time>2026-04-04T09:47:33.288Z</time></trkpt><trkpt lat="46.0381767" lon="12.93507"><ele>82.0</ele><time>2026-04-04T09:47:34.289Z</time></trkpt><trkpt lat="46.0379967" lon="12.9351083"><ele>82.0</ele><time>2026-04-04T09:47:35.294Z</time></trkpt><trkpt lat="46.03782" lon="12.9351433"><ele>82.0</ele><time>2026-04-04T09:47:36.288Z</time></trkpt><trkpt lat="46.0376417" lon="12.9351783"><ele>82.0</ele><time>2026-04-04T09:47:37.289Z</time></trkpt><trkpt lat="46.0374583" lon="12.9352133"><ele>82.0</ele><time>2026-04-04T09:47:38.292Z</time></trkpt><trkpt lat="46.03727" lon="12.9352517"><ele>82.0</ele><time>2026-04-04T09:47:39.288Z</time></trkpt><trkpt lat="46.0370767" lon="12.9352933"><ele>82.0</ele><time>2026-04-04T09:47:40.296Z</time></trkpt><trkpt lat="46.03688" lon="12.9353333"><ele>82.0</ele><time>2026-04-04T09:47:41.289Z</time></trkpt><trkpt lat="46.03668" lon="12.935375"><ele>82.0</ele><time>2026-04-04T09:47:42.288Z</time></trkpt><trkpt lat="46.0364817" lon="12.935415"><ele>82.0</ele><time>2026-04-04T09:47:43.287Z</time></trkpt><trkpt lat="46.0362817" lon="12.9354583"><ele>82.0</ele><time>2026-04-04T09:47:44.286Z</time></trkpt><trkpt lat="46.0360817" lon="12.9355"><ele>82.0</ele><time>2026-04-04T09:47:45.288Z</time></trkpt><trkpt lat="46.0358783" lon="12.9355417"><ele>81.33333333333333</ele><time>2026-04-04T09:47:46.288Z</time></trkpt><trkpt lat="46.03567" lon="12.9355867"><ele>80.66666666666667</ele><time>2026-04-04T09:47:47.293Z</time></trkpt><trkpt lat="46.0354683" lon="12.93563"><ele>80.0</ele><time>2026-04-04T09:47:48.291Z</time></trkpt><trkpt lat="46.0352633" lon="12.9356717"><ele>80.0</ele><time>2026-04-04T09:47:49.293Z</time></trkpt><trkpt lat="46.0350533" lon="12.9357183"><ele>80.0</ele><time>2026-04-04T09:47:50.295Z</time></trkpt><trkpt lat="46.0348467" lon="12.9357583"><ele>80.0</ele><time>2026-04-04T09:47:51.291Z</time></trkpt><trkpt lat="46.03464" lon="12.9358"><ele>80.0</ele><time>2026-04-04T09:47:52.297Z</time></trkpt><trkpt lat="46.0344367" lon="12.9358433"><ele>80.0</ele><time>2026-04-04T09:47:53.29Z</time></trkpt><trkpt lat="46.034235" lon="12.93589"><ele>80.0</ele><time>2026-04-04T09:47:54.289Z</time></trkpt><trkpt lat="46.034035" lon="12.9359267"><ele>79.33333333333334</ele><time>2026-04-04T09:47:55.289Z</time></trkpt><trkpt lat="46.0338317" lon="12.9359667"><ele>78.66666666666667</ele><time>2026-04-04T09:47:56.29Z</time></trkpt><trkpt lat="46.0336283" lon="12.9360083"><ele>78.0</ele><time>2026-04-04T09:47:57.288Z</time></trkpt><trkpt lat="46.0334233" lon="12.9360517"><ele>78.33333333333333</ele><time>2026-04-04T09:47:58.29Z</time></trkpt><trkpt lat="46.0332183" lon="12.936095"><ele>78.66666666666666</ele><time>2026-04-04T09:47:59.288Z</time></trkpt><trkpt lat="46.0330233" lon="12.9361383"><ele>79.0</ele><time>2026-04-04T09:48:00.288Z</time></trkpt><trkpt lat="46.03284" lon="12.93618"><ele>79.0</ele><time>2026-04-04T09:48:01.287Z</time></trkpt><trkpt lat="46.0326717" lon="12.9362183"><ele>79.0</ele><time>2026-04-04T09:48:02.292Z</time></trkpt><trkpt lat="46.0325167" lon="12.9362483"><ele>79.0</ele><time>2026-04-04T09:48:03.289Z</time></trkpt><trkpt lat="46.0323667" lon="12.9362733"><ele>78.5</ele><time>2026-04-04T09:48:04.288Z</time></trkpt><trkpt lat="46.0322267" lon="12.9362983"><ele>78.0</ele><time>2026-04-04T09:48:05.29Z</time></trkpt><trkpt lat="46.0321" lon="12.9363283"><ele>77.5</ele><time>2026-04-04T09:48:06.287Z</time></trkpt><trkpt lat="46.0319883" lon="12.9363533"><ele>77.0</ele><time>2026-04-04T09:48:07.293Z</time></trkpt><trkpt lat="46.031885" lon="12.9363767"><ele>77.0</ele><time>2026-04-04T09:48:08.288Z</time></trkpt><trkpt lat="46.031795" lon="12.9363967"><ele>77.0</ele><time>2026-04-04T09:48:09.288Z</time></trkpt><trkpt lat="46.031715" lon="12.9364117"><ele>77.0</ele><time>2026-04-04T09:48:10.285Z</time></trkpt><trkpt lat="46.0316367" lon="12.93642"><ele>77.0</ele><time>2026-04-04T09:48:11.288Z</time></trkpt><trkpt lat="46.0315633" lon="12.93641"><ele>77.0</ele><time>2026-04-04T09:48:12.288Z</time></trkpt><trkpt lat="46.0315033" lon="12.9363583"><ele>77.0</ele><time>2026-04-04T09:48:13.29Z</time></trkpt><trkpt lat="46.0314483" lon="12.9362683"><ele>77.75</ele><time>2026-04-04T09:48:14.291Z</time></trkpt><trkpt lat="46.031395" lon="12.93615"><ele>78.5</ele><time>2026-04-04T09:48:15.289Z</time></trkpt><trkpt lat="46.031335" lon="12.9360167"><ele>79.25</ele><time>2026-04-04T09:48:16.288Z</time></trkpt><trkpt lat="46.0312633" lon="12.93587"><ele>80.0</ele><time>2026-04-04T09:48:17.291Z</time></trkpt><trkpt lat="46.03119" lon="12.9357067"><ele>80.0</ele><time>2026-04-04T09:48:18.293Z</time></trkpt><trkpt lat="46.0311167" lon="12.935545"><ele>80.0</ele><time>2026-04-04T09:48:19.289Z</time></trkpt><trkpt lat="46.0310433" lon="12.9353883"><ele>80.0</ele><time>2026-04-04T09:48:20.29Z</time></trkpt><trkpt lat="46.0309733" lon="12.93524"><ele>80.0</ele><time>2026-04-04T09:48:21.289Z</time></trkpt><trkpt lat="46.030905" lon="12.9351"><ele>80.2</ele><time>2026-04-04T09:48:22.291Z</time></trkpt><trkpt lat="46.0308467" lon="12.9349667"><ele>80.4</ele><time>2026-04-04T09:48:23.289Z</time></trkpt><trkpt lat="46.0307917" lon="12.9348483"><ele>80.6</ele><time>2026-04-04T09:48:24.29Z</time></trkpt><trkpt lat="46.03074" lon="12.9347383"><ele>80.8</ele><time>2026-04-04T09:48:25.288Z</time></trkpt><trkpt lat="46.0306917" lon="12.9346417"><ele>81.0</ele><time>2026-04-04T09:48:26.288Z</time></trkpt><trkpt lat="46.0306517" lon="12.9345517"><ele>80.6</ele><time>2026-04-04T09:48:27.289Z</time></trkpt><trkpt lat="46.0306167" lon="12.9344733"><ele>80.19999999999999</ele><time>2026-04-04T09:48:28.289Z</time></trkpt><trkpt lat="46.0305417" lon="12.93438"><ele>79.80000000000001</ele><time>2026-04-04T09:48:30.286Z</time></trkpt><trkpt lat="46.0304467" lon="12.934385"><ele>79.4</ele><time>2026-04-04T09:48:32.291Z</time></trkpt><trkpt lat="46.0303633" lon="12.9344783"><ele>79.0</ele><time>2026-04-04T09:48:33.288Z</time></trkpt><trkpt lat="46.0302733" lon="12.9345767"><ele>79.0</ele><time>2026-04-04T09:48:34.286Z</time></trkpt><trkpt lat="46.0301767" lon="12.934675"><ele>79.0</ele><time>2026-04-04T09:48:35.288Z</time></trkpt><trkpt lat="46.0300883" lon="12.9347667"><ele>79.0</ele><time>2026-04-04T09:48:36.29Z</time></trkpt><trkpt lat="46.030005" lon="12.9348483"><ele>79.0</ele><time>2026-04-04T09:48:37.287Z</time></trkpt><trkpt lat="46.0299083" lon="12.9349333"><ele>79.0</ele><time>2026-04-04T09:48:38.29Z</time></trkpt><trkpt lat="46.02981" lon="12.9350083"><ele>78.83333333333333</ele><time>2026-04-04T09:48:39.29Z</time></trkpt><trkpt lat="46.0297117" lon="12.9350733"><ele>78.66666666666666</ele><time>2026-04-04T09:48:40.288Z</time></trkpt><trkpt lat="46.0296267" lon="12.9351317"><ele>78.5</ele><time>2026-04-04T09:48:41.289Z</time></trkpt><trkpt lat="46.0295517" lon="12.9351867"><ele>78.33333333333333</ele><time>2026-04-04T09:48:42.287Z</time></trkpt><trkpt lat="46.0294867" lon="12.9352333"><ele>78.16666666666667</ele><time>2026-04-04T09:48:43.29Z</time></trkpt><trkpt lat="46.0294283" lon="12.9352733"><ele>78.0</ele><time>2026-04-04T09:48:44.287Z</time></trkpt><trkpt lat="46.0293417" lon="12.935335"><ele>78.0</ele><time>2026-04-04T09:48:46.29Z</time></trkpt><trkpt lat="46.0293017" lon="12.9354417"><ele>78.0</ele><time>2026-04-04T09:48:51.289Z</time></trkpt><trkpt lat="46.0293233" lon="12.93553"><ele>78.0</ele><time>2026-04-04T09:48:52.289Z</time></trkpt><trkpt lat="46.0293567" lon="12.9356433"><ele>78.0</ele><time>2026-04-04T09:48:53.289Z</time></trkpt><trkpt lat="46.0294017" lon="12.9357783"><ele>78.0</ele><time>2026-04-04T09:48:54.288Z</time></trkpt><trkpt lat="46.0294467" lon="12.93592"><ele>78.0</ele><time>2026-04-04T09:48:55.295Z</time></trkpt><trkpt lat="46.0295" lon="12.9360717"><ele>78.0</ele><time>2026-04-04T09:48:56.291Z</time></trkpt><trkpt lat="46.029545" lon="12.936205"><ele>78.0</ele><time>2026-04-04T09:48:57.287Z</time></trkpt><trkpt lat="46.0295867" lon="12.9363267"><ele>78.0</ele><time>2026-04-04T09:48:58.29Z</time></trkpt><trkpt lat="46.0296217" lon="12.9364333"><ele>78.0</ele><time>2026-04-04T09:48:59.293Z</time></trkpt><trkpt lat="46.0296483" lon="12.9365183"><ele>78.0</ele><time>2026-04-04T09:49:00.289Z</time></trkpt><trkpt lat="46.0296917" lon="12.93666"><ele>78.0</ele><time>2026-04-04T09:49:02.292Z</time></trkpt><trkpt lat="46.0297083" lon="12.93676"><ele>78.0</ele><time>2026-04-04T09:49:04.286Z</time></trkpt><trkpt lat="46.0297233" lon="12.9368933"><ele>78.0</ele><time>2026-04-04T09:49:17.293Z</time></trkpt><trkpt lat="46.0297733" lon="12.9370133"><ele>78.0</ele><time>2026-04-04T09:49:18.29Z</time></trkpt><trkpt lat="46.0298183" lon="12.9371417"><ele>78.0</ele><time>2026-04-04T09:49:19.29Z</time></trkpt><trkpt lat="46.0298583" lon="12.9372583"><ele>78.0</ele><time>2026-04-04T09:49:20.292Z</time></trkpt><trkpt lat="46.02989" lon="12.93736"><ele>78.0</ele><time>2026-04-04T09:49:21.288Z</time></trkpt><trkpt lat="46.0299033" lon="12.9374517"><ele>78.0</ele><time>2026-04-04T09:49:22.287Z</time></trkpt><trkpt lat="46.0298767" lon="12.9375883"><ele>78.0</ele><time>2026-04-04T09:49:24.29Z</time></trkpt><trkpt lat="46.0298017" lon="12.93768"><ele>78.0</ele><time>2026-04-04T09:49:26.291Z</time></trkpt><trkpt lat="46.0297217" lon="12.9377367"><ele>78.0</ele><time>2026-04-04T09:49:28.289Z</time></trkpt><trkpt lat="46.0296083" lon="12.9377317"><ele>78.0</ele><time>2026-04-04T09:49:30.286Z</time></trkpt><trkpt lat="46.0295417" lon="12.9377183"><ele>78.0</ele><time>2026-04-04T09:49:31.29Z</time></trkpt><trkpt lat="46.02947" lon="12.9377083"><ele>78.0</ele><time>2026-04-04T09:49:32.289Z</time></trkpt><trkpt lat="46.029385" lon="12.9377183"><ele>78.0</ele><time>2026-04-04T09:49:33.287Z</time></trkpt><trkpt lat="46.0293033" lon="12.937745"><ele>78.0</ele><time>2026-04-04T09:49:34.288Z</time></trkpt><trkpt lat="46.0292" lon="12.9378167"><ele>78.0</ele><time>2026-04-04T09:49:36.288Z</time></trkpt><trkpt lat="46.0291183" lon="12.9378833"><ele>77.8</ele><time>2026-04-04T09:49:38.288Z</time></trkpt><trkpt lat="46.0290933" lon="12.9379733"><ele>77.6</ele><time>2026-04-04T09:49:41.291Z</time></trkpt><trkpt lat="46.029115" lon="12.93808"><ele>77.4</ele><time>2026-04-04T09:49:55.288Z</time></trkpt><trkpt lat="46.0290683" lon="12.9381533"><ele>77.2</ele><time>2026-04-04T09:49:57.29Z</time></trkpt><trkpt lat="46.028935" lon="12.938225"><ele>77.0</ele><time>2026-04-04T09:49:59.287Z</time></trkpt><trkpt lat="46.0288367" lon="12.9382633"><ele>77.0</ele><time>2026-04-04T09:50:00.289Z</time></trkpt><trkpt lat="46.0287267" lon="12.9383067"><ele>77.0</ele><time>2026-04-04T09:50:01.287Z</time></trkpt><trkpt lat="46.0286067" lon="12.9383583"><ele>77.0</ele><time>2026-04-04T09:50:02.292Z</time></trkpt><trkpt lat="46.0284817" lon="12.9384133"><ele>77.0</ele><time>2026-04-04T09:50:03.287Z</time></trkpt><trkpt lat="46.0283683" lon="12.9384617"><ele>76.66666666666667</ele><time>2026-04-04T09:50:04.29Z</time></trkpt><trkpt lat="46.0282667" lon="12.9385067"><ele>76.33333333333334</ele><time>2026-04-04T09:50:05.289Z</time></trkpt><trkpt lat="46.028185" lon="12.938545"><ele>76.0</ele><time>2026-04-04T09:50:06.29Z</time></trkpt><trkpt lat="46.028125" lon="12.9385733"><ele>75.66666666666667</ele><time>2026-04-04T09:50:07.29Z</time></trkpt><trkpt lat="46.02805" lon="12.938645"><ele>75.33333333333333</ele><time>2026-04-04T09:50:09.288Z</time></trkpt><trkpt lat="46.028045" lon="12.93877"><ele>75.0</ele><time>2026-04-04T09:50:11.29Z</time></trkpt><trkpt lat="46.0280717" lon="12.9388733"><ele>75.0</ele><time>2026-04-04T09:50:12.289Z</time></trkpt><trkpt lat="46.028115" lon="12.9390033"><ele>75.0</ele><time>2026-04-04T09:50:13.287Z</time></trkpt><trkpt lat="46.02816" lon="12.939135"><ele>75.0</ele><time>2026-04-04T09:50:14.289Z</time></trkpt><trkpt lat="46.0282033" lon="12.9392683"><ele>75.0</ele><time>2026-04-04T09:50:15.285Z</time></trkpt><trkpt lat="46.028245" lon="12.9393967"><ele>75.0</ele><time>2026-04-04T09:50:16.287Z</time></trkpt><trkpt lat="46.0282833" lon="12.9395067"><ele>74.8</ele><time>2026-04-04T09:50:17.287Z</time></trkpt><trkpt lat="46.028315" lon="12.9395917"><ele>74.6</ele><time>2026-04-04T09:50:18.289Z</time></trkpt><trkpt lat="46.0283583" lon="12.93974"><ele>74.4</ele><time>2026-04-04T09:50:20.287Z</time></trkpt><trkpt lat="46.0283417" lon="12.939875"><ele>74.2</ele><time>2026-04-04T09:50:22.289Z</time></trkpt><trkpt lat="46.02824" lon="12.939965"><ele>74.0</ele><time>2026-04-04T09:50:24.292Z</time></trkpt><trkpt lat="46.0281467" lon="12.9399867"><ele>74.5</ele><time>2026-04-04T09:50:25.289Z</time></trkpt><trkpt lat="46.0280383" lon="12.94002"><ele>75.0</ele><time>2026-04-04T09:50:26.291Z</time></trkpt><trkpt lat="46.02792" lon="12.9400567"><ele>75.5</ele><time>2026-04-04T09:50:27.29Z</time></trkpt><trkpt lat="46.0277917" lon="12.9400967"><ele>76.0</ele><time>2026-04-04T09:50:28.288Z</time></trkpt><trkpt lat="46.0276517" lon="12.9401367"><ele>76.0</ele><time>2026-04-04T09:50:29.29Z</time></trkpt><trkpt lat="46.027515" lon="12.940175"><ele>76.0</ele><time>2026-04-04T09:50:30.287Z</time></trkpt><trkpt lat="46.0273833" lon="12.94021"><ele>76.0</ele><time>2026-04-04T09:50:31.288Z</time></trkpt><trkpt lat="46.0272567" lon="12.9402433"><ele>76.0</ele><time>2026-04-04T09:50:32.29Z</time></trkpt><trkpt lat="46.0271417" lon="12.940275"><ele>75.8</ele><time>2026-04-04T09:50:33.287Z</time></trkpt><trkpt lat="46.0270333" lon="12.940305"><ele>75.6</ele><time>2026-04-04T09:50:34.287Z</time></trkpt><trkpt lat="46.0269367" lon="12.9403367"><ele>75.4</ele><time>2026-04-04T09:50:35.288Z</time></trkpt><trkpt lat="46.0268483" lon="12.9403683"><ele>75.2</ele><time>2026-04-04T09:50:36.289Z</time></trkpt><trkpt lat="46.0267733" lon="12.9403933"><ele>75.0</ele><time>2026-04-04T09:50:37.287Z</time></trkpt><trkpt lat="46.0266733" lon="12.9404233"><ele>74.8</ele><time>2026-04-04T09:50:39.285Z</time></trkpt><trkpt lat="46.0265933" lon="12.9404167"><ele>74.6</ele><time>2026-04-04T09:50:42.288Z</time></trkpt><trkpt lat="46.0265167" lon="12.9404983"><ele>74.4</ele><time>2026-04-04T09:50:45.291Z</time></trkpt><trkpt lat="46.0264683" lon="12.9405983"><ele>74.2</ele><time>2026-04-04T09:50:46.289Z</time></trkpt><trkpt lat="46.0264233" lon="12.9407267"><ele>74.0</ele><time>2026-04-04T09:50:47.291Z</time></trkpt><trkpt lat="46.02637" lon="12.9408817"><ele>73.75</ele><time>2026-04-04T09:50:48.292Z</time></trkpt><trkpt lat="46.0263083" lon="12.9410467"><ele>73.5</ele><time>2026-04-04T09:50:49.289Z</time></trkpt><trkpt lat="46.0262317" lon="12.941225"><ele>73.25</ele><time>2026-04-04T09:50:50.291Z</time></trkpt><trkpt lat="46.0261533" lon="12.9414083"><ele>73.0</ele><time>2026-04-04T09:50:51.288Z</time></trkpt><trkpt lat="46.026075" lon="12.9415983"><ele>73.33333333333333</ele><time>2026-04-04T09:50:52.29Z</time></trkpt><trkpt lat="46.0259917" lon="12.9417967"><ele>73.66666666666667</ele><time>2026-04-04T09:50:53.29Z</time></trkpt><trkpt lat="46.0259033" lon="12.9420117"><ele>74.0</ele><time>2026-04-04T09:50:54.291Z</time></trkpt><trkpt lat="46.025825" lon="12.9422367"><ele>74.0</ele><time>2026-04-04T09:50:55.288Z</time></trkpt><trkpt lat="46.0257517" lon="12.9424683"><ele>74.0</ele><time>2026-04-04T09:50:56.289Z</time></trkpt><trkpt lat="46.0256767" lon="12.9427117"><ele>74.0</ele><time>2026-04-04T09:50:57.289Z</time></trkpt><trkpt lat="46.0255983" lon="12.9429633"><ele>74.0</ele><time>2026-04-04T09:50:58.29Z</time></trkpt><trkpt lat="46.025515" lon="12.9432217"><ele>74.0</ele><time>2026-04-04T09:50:59.288Z</time></trkpt><trkpt lat="46.0254283" lon="12.9434833"><ele>74.0</ele><time>2026-04-04T09:51:00.291Z</time></trkpt><trkpt lat="46.0253483" lon="12.943745"><ele>74.0</ele><time>2026-04-04T09:51:01.289Z</time></trkpt><trkpt lat="46.0252667" lon="12.944005"><ele>74.0</ele><time>2026-04-04T09:51:02.29Z</time></trkpt><trkpt lat="46.0251833" lon="12.9442617"><ele>74.0</ele><time>2026-04-04T09:51:03.295Z</time></trkpt><trkpt lat="46.0251" lon="12.944525"><ele>74.0</ele><time>2026-04-04T09:51:04.287Z</time></trkpt><trkpt lat="46.0250167" lon="12.94479"><ele>74.0</ele><time>2026-04-04T09:51:05.292Z</time></trkpt><trkpt lat="46.0249333" lon="12.94506"><ele>74.0</ele><time>2026-04-04T09:51:06.288Z</time></trkpt><trkpt lat="46.0248533" lon="12.9453317"><ele>73.66666666666667</ele><time>2026-04-04T09:51:07.29Z</time></trkpt><trkpt lat="46.0247667" lon="12.9456067"><ele>73.33333333333333</ele><time>2026-04-04T09:51:08.292Z</time></trkpt><trkpt lat="46.02468" lon="12.94588"><ele>73.0</ele><time>2026-04-04T09:51:09.29Z</time></trkpt><trkpt lat="46.024595" lon="12.9461567"><ele>72.66666666666666</ele><time>2026-04-04T09:51:10.292Z</time></trkpt><trkpt lat="46.0245067" lon="12.946435"><ele>72.33333333333333</ele><time>2026-04-04T09:51:11.285Z</time></trkpt><trkpt lat="46.0244183" lon="12.9467167"><ele>72.0</ele><time>2026-04-04T09:51:12.291Z</time></trkpt><trkpt lat="46.02433" lon="12.947"><ele>71.66666666666667</ele><time>2026-04-04T09:51:13.289Z</time></trkpt><trkpt lat="46.02424" lon="12.947285"><ele>71.33333333333334</ele><time>2026-04-04T09:51:14.288Z</time></trkpt><trkpt lat="46.0241517" lon="12.9475717"><ele>71.0</ele><time>2026-04-04T09:51:15.29Z</time></trkpt><trkpt lat="46.02406" lon="12.9478583"><ele>71.0</ele><time>2026-04-04T09:51:16.289Z</time></trkpt><trkpt lat="46.02397" lon="12.9481367"><ele>71.0</ele><time>2026-04-04T09:51:17.288Z</time></trkpt><trkpt lat="46.0238883" lon="12.948395"><ele>71.0</ele><time>2026-04-04T09:51:18.29Z</time></trkpt><trkpt lat="46.023815" lon="12.9486333"><ele>71.33333333333334</ele><time>2026-04-04T09:51:19.29Z</time></trkpt><trkpt lat="46.023745" lon="12.9488567"><ele>71.66666666666667</ele><time>2026-04-04T09:51:20.288Z</time></trkpt><trkpt lat="46.02368" lon="12.9490667"><ele>72.0</ele><time>2026-04-04T09:51:21.293Z</time></trkpt><trkpt lat="46.02362" lon="12.94926"><ele>72.25</ele><time>2026-04-04T09:51:22.287Z</time></trkpt><trkpt lat="46.0235683" lon="12.94944"><ele>72.5</ele><time>2026-04-04T09:51:23.292Z</time></trkpt><trkpt lat="46.0235167" lon="12.9496083"><ele>72.75</ele><time>2026-04-04T09:51:24.291Z</time></trkpt><trkpt lat="46.02347" lon="12.9497633"><ele>73.0</ele><time>2026-04-04T09:51:25.292Z</time></trkpt><trkpt lat="46.0234283" lon="12.9499067"><ele>73.0</ele><time>2026-04-04T09:51:26.289Z</time></trkpt><trkpt lat="46.0233867" lon="12.9500383"><ele>73.0</ele><time>2026-04-04T09:51:27.292Z</time></trkpt><trkpt lat="46.0233483" lon="12.95016"><ele>73.0</ele><time>2026-04-04T09:51:28.29Z</time></trkpt><trkpt lat="46.0233133" lon="12.95027"><ele>73.0</ele><time>2026-04-04T09:51:29.291Z</time></trkpt><trkpt lat="46.0232767" lon="12.9503633"><ele>73.0</ele><time>2026-04-04T09:51:30.288Z</time></trkpt><trkpt lat="46.023235" lon="12.9504317"><ele>73.0</ele><time>2026-04-04T09:51:31.287Z</time></trkpt><trkpt lat="46.0231767" lon="12.9504817"><ele>73.2</ele><time>2026-04-04T09:51:32.292Z</time></trkpt><trkpt lat="46.0230833" lon="12.9505317"><ele>73.4</ele><time>2026-04-04T09:51:33.288Z</time></trkpt><trkpt lat="46.022985" lon="12.9505783"><ele>73.60000000000001</ele><time>2026-04-04T09:51:34.289Z</time></trkpt><trkpt lat="46.0228817" lon="12.9506417"><ele>73.8</ele><time>2026-04-04T09:51:35.287Z</time></trkpt><trkpt lat="46.0227717" lon="12.9507233"><ele>74.0</ele><time>2026-04-04T09:51:36.289Z</time></trkpt><trkpt lat="46.022655" lon="12.9508183"><ele>73.75</ele><time>2026-04-04T09:51:37.293Z</time></trkpt><trkpt lat="46.0225383" lon="12.9509283"><ele>73.5</ele><time>2026-04-04T09:51:38.291Z</time></trkpt><trkpt lat="46.0224233" lon="12.9510383"><ele>73.25</ele><time>2026-04-04T09:51:39.29Z</time></trkpt><trkpt lat="46.0223033" lon="12.951155"><ele>73.0</ele><time>2026-04-04T09:51:40.29Z</time></trkpt><trkpt lat="46.0221833" lon="12.9512667"><ele>72.75</ele><time>2026-04-04T09:51:41.289Z</time></trkpt><trkpt lat="46.0220633" lon="12.9513717"><ele>72.5</ele><time>2026-04-04T09:51:42.289Z</time></trkpt><trkpt lat="46.02194" lon="12.951475"><ele>72.25</ele><time>2026-04-04T09:51:43.293Z</time></trkpt><trkpt lat="46.0218133" lon="12.95158"><ele>72.0</ele><time>2026-04-04T09:51:44.289Z</time></trkpt><trkpt lat="46.0216817" lon="12.951675"><ele>71.66666666666667</ele><time>2026-04-04T09:51:45.287Z</time></trkpt><trkpt lat="46.0215483" lon="12.95177"><ele>71.33333333333334</ele><time>2026-04-04T09:51:46.288Z</time></trkpt><trkpt lat="46.0214083" lon="12.9518683"><ele>71.0</ele><time>2026-04-04T09:51:47.29Z</time></trkpt><trkpt lat="46.02127" lon="12.951965"><ele>71.0</ele><time>2026-04-04T09:51:48.295Z</time></trkpt><trkpt lat="46.02114" lon="12.9520533"><ele>71.0</ele><time>2026-04-04T09:51:49.288Z</time></trkpt><trkpt lat="46.0210117" lon="12.952125"><ele>71.0</ele><time>2026-04-04T09:51:50.294Z</time></trkpt><trkpt lat="46.0208783" lon="12.9522033"><ele>71.0</ele><time>2026-04-04T09:51:51.289Z</time></trkpt><trkpt lat="46.0207533" lon="12.9522817"><ele>71.0</ele><time>2026-04-04T09:51:52.287Z</time></trkpt><trkpt lat="46.0206317" lon="12.9523583"><ele>71.0</ele><time>2026-04-04T09:51:53.292Z</time></trkpt><trkpt lat="46.0205067" lon="12.9524367"><ele>71.0</ele><time>2026-04-04T09:51:54.29Z</time></trkpt><trkpt lat="46.020385" lon="12.95252"><ele>71.0</ele><time>2026-04-04T09:51:55.288Z</time></trkpt><trkpt lat="46.0202633" lon="12.9526033"><ele>71.0</ele><time>2026-04-04T09:51:56.289Z</time></trkpt><trkpt lat="46.0201433" lon="12.952685"><ele>71.0</ele><time>2026-04-04T09:51:57.288Z</time></trkpt><trkpt lat="46.0200217" lon="12.952765"><ele>71.0</ele><time>2026-04-04T09:51:58.293Z</time></trkpt><trkpt lat="46.019895" lon="12.952845"><ele>71.0</ele><time>2026-04-04T09:51:59.289Z</time></trkpt><trkpt lat="46.0197667" lon="12.9529283"><ele>70.75</ele><time>2026-04-04T09:52:00.292Z</time></trkpt><trkpt lat="46.0196383" lon="12.9530133"><ele>70.5</ele><time>2026-04-04T09:52:01.291Z</time></trkpt><trkpt lat="46.01951" lon="12.9530967"><ele>70.25</ele><time>2026-04-04T09:52:02.293Z</time></trkpt><trkpt lat="46.0193883" lon="12.953185"><ele>70.0</ele><time>2026-04-04T09:52:03.29Z</time></trkpt><trkpt lat="46.0192733" lon="12.9532767"><ele>70.0</ele><time>2026-04-04T09:52:04.288Z</time></trkpt><trkpt lat="46.019155" lon="12.95337"><ele>70.0</ele><time>2026-04-04T09:52:05.293Z</time></trkpt><trkpt lat="46.019035" lon="12.9534633"><ele>70.0</ele><time>2026-04-04T09:52:06.288Z</time></trkpt><trkpt lat="46.01891" lon="12.953555"><ele>70.0</ele><time>2026-04-04T09:52:07.291Z</time></trkpt><trkpt lat="46.018785" lon="12.9536467"><ele>69.75</ele><time>2026-04-04T09:52:08.287Z</time></trkpt><trkpt lat="46.018665" lon="12.95374"><ele>69.5</ele><time>2026-04-04T09:52:09.287Z</time></trkpt><trkpt lat="46.018545" lon="12.9538283"><ele>69.25</ele><time>2026-04-04T09:52:10.29Z</time></trkpt><trkpt lat="46.0184233" lon="12.953915"><ele>69.0</ele><time>2026-04-04T09:52:11.288Z</time></trkpt><trkpt lat="46.0182983" lon="12.954"><ele>69.0</ele><time>2026-04-04T09:52:12.285Z</time></trkpt><trkpt lat="46.0181767" lon="12.9540833"><ele>69.0</ele><time>2026-04-04T09:52:13.289Z</time></trkpt><trkpt lat="46.0180633" lon="12.9541633"><ele>69.0</ele><time>2026-04-04T09:52:14.288Z</time></trkpt><trkpt lat="46.0179467" lon="12.9542433"><ele>69.0</ele><time>2026-04-04T09:52:15.287Z</time></trkpt><trkpt lat="46.017835" lon="12.9543233"><ele>68.75</ele><time>2026-04-04T09:52:16.292Z</time></trkpt><trkpt lat="46.0177283" lon="12.9544033"><ele>68.5</ele><time>2026-04-04T09:52:17.29Z</time></trkpt><trkpt lat="46.0176183" lon="12.954475"><ele>68.25</ele><time>2026-04-04T09:52:18.291Z</time></trkpt><trkpt lat="46.0175033" lon="12.954545"><ele>68.0</ele><time>2026-04-04T09:52:19.291Z</time></trkpt><trkpt lat="46.0173883" lon="12.9546117"><ele>68.0</ele><time>2026-04-04T09:52:20.29Z</time></trkpt><trkpt lat="46.01727" lon="12.9546883"><ele>68.0</ele><time>2026-04-04T09:52:21.288Z</time></trkpt><trkpt lat="46.017155" lon="12.9547683"><ele>68.0</ele><time>2026-04-04T09:52:22.287Z</time></trkpt><trkpt lat="46.0170533" lon="12.9548433"><ele>68.0</ele><time>2026-04-04T09:52:23.288Z</time></trkpt><trkpt lat="46.0169583" lon="12.9549083"><ele>68.0</ele><time>2026-04-04T09:52:24.285Z</time></trkpt><trkpt lat="46.01686" lon="12.9549733"><ele>68.0</ele><time>2026-04-04T09:52:25.292Z</time></trkpt><trkpt lat="46.016755" lon="12.9550433"><ele>68.0</ele><time>2026-04-04T09:52:26.289Z</time></trkpt><trkpt lat="46.0166433" lon="12.9551167"><ele>68.0</ele><time>2026-04-04T09:52:27.297Z</time></trkpt><trkpt lat="46.01652" lon="12.9551983"><ele>68.0</ele><time>2026-04-04T09:52:28.292Z</time></trkpt><trkpt lat="46.0163917" lon="12.9552833"><ele>68.0</ele><time>2026-04-04T09:52:29.286Z</time></trkpt><trkpt lat="46.0162583" lon="12.95537"><ele>68.0</ele><time>2026-04-04T09:52:30.289Z</time></trkpt><trkpt lat="46.0161217" lon="12.9554583"><ele>68.0</ele><time>2026-04-04T09:52:31.291Z</time></trkpt><trkpt lat="46.015985" lon="12.9555433"><ele>68.0</ele><time>2026-04-04T09:52:32.289Z</time></trkpt><trkpt lat="46.0158567" lon="12.9556183"><ele>68.0</ele><time>2026-04-04T09:52:33.286Z</time></trkpt><trkpt lat="46.0157333" lon="12.9556983"><ele>68.0</ele><time>2026-04-04T09:52:34.289Z</time></trkpt><trkpt lat="46.0156117" lon="12.955775"><ele>68.0</ele><time>2026-04-04T09:52:35.294Z</time></trkpt><trkpt lat="46.0154917" lon="12.9558517"><ele>67.33333333333334</ele><time>2026-04-04T09:52:36.291Z</time></trkpt><trkpt lat="46.0153617" lon="12.955935"><ele>66.66666666666667</ele><time>2026-04-04T09:52:37.29Z</time></trkpt><trkpt lat="46.0152167" lon="12.9560117"><ele>66.0</ele><time>2026-04-04T09:52:38.293Z</time></trkpt><trkpt lat="46.0150667" lon="12.95609"><ele>66.66666666666667</ele><time>2026-04-04T09:52:39.289Z</time></trkpt><trkpt lat="46.01492" lon="12.956175"><ele>67.33333333333334</ele><time>2026-04-04T09:52:40.292Z</time></trkpt><trkpt lat="46.01477" lon="12.956265"><ele>68.0</ele><time>2026-04-04T09:52:41.291Z</time></trkpt><trkpt lat="46.0146117" lon="12.9563617"><ele>68.0</ele><time>2026-04-04T09:52:42.289Z</time></trkpt><trkpt lat="46.0144467" lon="12.9564617"><ele>68.0</ele><time>2026-04-04T09:52:43.291Z</time></trkpt><trkpt lat="46.0142883" lon="12.956555"><ele>68.0</ele><time>2026-04-04T09:52:44.291Z</time></trkpt><trkpt lat="46.0141317" lon="12.95665"><ele>67.66666666666667</ele><time>2026-04-04T09:52:45.286Z</time></trkpt><trkpt lat="46.0139733" lon="12.956745"><ele>67.33333333333333</ele><time>2026-04-04T09:52:46.286Z</time></trkpt><trkpt lat="46.0138217" lon="12.9568367"><ele>67.0</ele><time>2026-04-04T09:52:47.291Z</time></trkpt><trkpt lat="46.0136767" lon="12.9569233"><ele>67.0</ele><time>2026-04-04T09:52:48.289Z</time></trkpt><trkpt lat="46.0135367" lon="12.95701"><ele>67.0</ele><time>2026-04-04T09:52:49.291Z</time></trkpt><trkpt lat="46.013395" lon="12.9570967"><ele>67.0</ele><time>2026-04-04T09:52:50.29Z</time></trkpt><trkpt lat="46.0132533" lon="12.95718"><ele>66.33333333333333</ele><time>2026-04-04T09:52:51.29Z</time></trkpt><trkpt lat="46.0131067" lon="12.9572617"><ele>65.66666666666667</ele><time>2026-04-04T09:52:52.288Z</time></trkpt><trkpt lat="46.0129517" lon="12.9573533"><ele>65.0</ele><time>2026-04-04T09:52:53.292Z</time></trkpt><trkpt lat="46.0127917" lon="12.9574533"><ele>65.0</ele><time>2026-04-04T09:52:54.288Z</time></trkpt><trkpt lat="46.0126267" lon="12.9575617"><ele>65.0</ele><time>2026-04-04T09:52:55.291Z</time></trkpt><trkpt lat="46.0124683" lon="12.957665"><ele>65.0</ele><time>2026-04-04T09:52:56.29Z</time></trkpt><trkpt lat="46.0123133" lon="12.9577667"><ele>64.66666666666667</ele><time>2026-04-04T09:52:57.29Z</time></trkpt><trkpt lat="46.0121633" lon="12.9578617"><ele>64.33333333333333</ele><time>2026-04-04T09:52:58.292Z</time></trkpt><trkpt lat="46.0120217" lon="12.95796"><ele>64.0</ele><time>2026-04-04T09:52:59.288Z</time></trkpt><trkpt lat="46.011885" lon="12.9580583"><ele>64.0</ele><time>2026-04-04T09:53:00.289Z</time></trkpt><trkpt lat="46.0117517" lon="12.9581517"><ele>64.0</ele><time>2026-04-04T09:53:01.292Z</time></trkpt><trkpt lat="46.0116233" lon="12.9582367"><ele>64.0</ele><time>2026-04-04T09:53:02.288Z</time></trkpt><trkpt lat="46.0114917" lon="12.958315"><ele>64.0</ele><time>2026-04-04T09:53:03.288Z</time></trkpt><trkpt lat="46.0113567" lon="12.9584067"><ele>63.75</ele><time>2026-04-04T09:53:04.29Z</time></trkpt><trkpt lat="46.0112233" lon="12.9585067"><ele>63.5</ele><time>2026-04-04T09:53:05.287Z</time></trkpt><trkpt lat="46.0110883" lon="12.9585983"><ele>63.25</ele><time>2026-04-04T09:53:06.287Z</time></trkpt><trkpt lat="46.0109567" lon="12.9586833"><ele>63.0</ele><time>2026-04-04T09:53:07.289Z</time></trkpt><trkpt lat="46.0108383" lon="12.9587717"><ele>63.75</ele><time>2026-04-04T09:53:08.288Z</time></trkpt><trkpt lat="46.0107233" lon="12.9588617"><ele>64.5</ele><time>2026-04-04T09:53:09.287Z</time></trkpt><trkpt lat="46.010605" lon="12.95896"><ele>65.25</ele><time>2026-04-04T09:53:10.29Z</time></trkpt><trkpt lat="46.0104867" lon="12.95906"><ele>66.0</ele><time>2026-04-04T09:53:11.287Z</time></trkpt><trkpt lat="46.0103767" lon="12.959155"><ele>66.0</ele><time>2026-04-04T09:53:12.289Z</time></trkpt><trkpt lat="46.0102683" lon="12.9592483"><ele>66.0</ele><time>2026-04-04T09:53:13.291Z</time></trkpt><trkpt lat="46.01016" lon="12.9593417"><ele>66.0</ele><time>2026-04-04T09:53:14.291Z</time></trkpt><trkpt lat="46.010055" lon="12.95943"><ele>66.0</ele><time>2026-04-04T09:53:15.288Z</time></trkpt><trkpt lat="46.0099567" lon="12.959515"><ele>65.39999999999999</ele><time>2026-04-04T09:53:16.289Z</time></trkpt><trkpt lat="46.009865" lon="12.959595"><ele>64.8</ele><time>2026-04-04T09:53:17.289Z</time></trkpt><trkpt lat="46.00978" lon="12.9596733"><ele>64.19999999999999</ele><time>2026-04-04T09:53:18.286Z</time></trkpt><trkpt lat="46.0097" lon="12.9597483"><ele>63.599999999999994</ele><time>2026-04-04T09:53:19.293Z</time></trkpt><trkpt lat="46.0096233" lon="12.9598183"><ele>63.0</ele><time>2026-04-04T09:53:20.29Z</time></trkpt><trkpt lat="46.00955" lon="12.95988"><ele>63.0</ele><time>2026-04-04T09:53:21.289Z</time></trkpt><trkpt lat="46.0094817" lon="12.9599367"><ele>63.0</ele><time>2026-04-04T09:53:22.289Z</time></trkpt><trkpt lat="46.00942" lon="12.9599833"><ele>63.0</ele><time>2026-04-04T09:53:23.29Z</time></trkpt><trkpt lat="46.0093217" lon="12.960065"><ele>63.0</ele><time>2026-04-04T09:53:25.286Z</time></trkpt><trkpt lat="46.009215" lon="12.960135"><ele>63.0</ele><time>2026-04-04T09:53:27.286Z</time></trkpt><trkpt lat="46.0091383" lon="12.9601683"><ele>63.0</ele><time>2026-04-04T09:53:28.289Z</time></trkpt><trkpt lat="46.009045" lon="12.9602117"><ele>63.0</ele><time>2026-04-04T09:53:29.288Z</time></trkpt><trkpt lat="46.0089317" lon="12.960275"><ele>63.0</ele><time>2026-04-04T09:53:30.285Z</time></trkpt><trkpt lat="46.0088117" lon="12.96034"><ele>63.0</ele><time>2026-04-04T09:53:31.288Z</time></trkpt><trkpt lat="46.0086867" lon="12.9604183"><ele>63.0</ele><time>2026-04-04T09:53:32.289Z</time></trkpt><trkpt lat="46.0085533" lon="12.960505"><ele>63.0</ele><time>2026-04-04T09:53:33.292Z</time></trkpt><trkpt lat="46.0084117" lon="12.9605983"><ele>63.0</ele><time>2026-04-04T09:53:34.287Z</time></trkpt><trkpt lat="46.008255" lon="12.9606983"><ele>63.33333333333333</ele><time>2026-04-04T09:53:35.289Z</time></trkpt><trkpt lat="46.0080967" lon="12.9607967"><ele>63.666666666666664</ele><time>2026-04-04T09:53:36.291Z</time></trkpt><trkpt lat="46.00794" lon="12.9608983"><ele>64.0</ele><time>2026-04-04T09:53:37.289Z</time></trkpt><trkpt lat="46.00778" lon="12.9610083"><ele>64.0</ele><time>2026-04-04T09:53:38.294Z</time></trkpt><trkpt lat="46.0076117" lon="12.96112"><ele>64.0</ele><time>2026-04-04T09:53:39.29Z</time></trkpt><trkpt lat="46.0074417" lon="12.96123"><ele>64.0</ele><time>2026-04-04T09:53:40.289Z</time></trkpt><trkpt lat="46.0072683" lon="12.9613467"><ele>63.33333333333333</ele><time>2026-04-04T09:53:41.286Z</time></trkpt><trkpt lat="46.0070867" lon="12.96145"><ele>62.66666666666667</ele><time>2026-04-04T09:53:42.289Z</time></trkpt><trkpt lat="46.0069067" lon="12.961545"><ele>62.0</ele><time>2026-04-04T09:53:43.29Z</time></trkpt><trkpt lat="46.00673" lon="12.9616433"><ele>61.66666666666667</ele><time>2026-04-04T09:53:44.288Z</time></trkpt><trkpt lat="46.006545" lon="12.9617417"><ele>61.33333333333333</ele><time>2026-04-04T09:53:45.289Z</time></trkpt><trkpt lat="46.0063633" lon="12.9618367"><ele>61.0</ele><time>2026-04-04T09:53:46.29Z</time></trkpt><trkpt lat="46.0061917" lon="12.961925"><ele>61.0</ele><time>2026-04-04T09:53:47.29Z</time></trkpt><trkpt lat="46.0060283" lon="12.9620133"><ele>61.0</ele><time>2026-04-04T09:53:48.287Z</time></trkpt><trkpt lat="46.005865" lon="12.9621033"><ele>61.0</ele><time>2026-04-04T09:53:49.29Z</time></trkpt><trkpt lat="46.0057033" lon="12.9621917"><ele>61.25</ele><time>2026-04-04T09:53:50.292Z</time></trkpt><trkpt lat="46.0055567" lon="12.9622733"><ele>61.5</ele><time>2026-04-04T09:53:51.29Z</time></trkpt><trkpt lat="46.0054233" lon="12.9623533"><ele>61.75</ele><time>2026-04-04T09:53:52.294Z</time></trkpt><trkpt lat="46.0052867" lon="12.9624317"><ele>62.0</ele><time>2026-04-04T09:53:53.29Z</time></trkpt><trkpt lat="46.0051533" lon="12.9625117"><ele>62.25</ele><time>2026-04-04T09:53:54.288Z</time></trkpt><trkpt lat="46.0050283" lon="12.962585"><ele>62.5</ele><time>2026-04-04T09:53:55.291Z</time></trkpt><trkpt lat="46.00491" lon="12.96266"><ele>62.75</ele><time>2026-04-04T09:53:56.289Z</time></trkpt><trkpt lat="46.0047983" lon="12.96273"><ele>63.0</ele><time>2026-04-04T09:53:57.292Z</time></trkpt><trkpt lat="46.004685" lon="12.9627967"><ele>63.0</ele><time>2026-04-04T09:53:58.287Z</time></trkpt><trkpt lat="46.0045783" lon="12.9628617"><ele>63.0</ele><time>2026-04-04T09:53:59.29Z</time></trkpt><trkpt lat="46.00448" lon="12.96292"><ele>63.0</ele><time>2026-04-04T09:54:00.289Z</time></trkpt><trkpt lat="46.004385" lon="12.962975"><ele>63.0</ele><time>2026-04-04T09:54:01.288Z</time></trkpt><trkpt lat="46.00429" lon="12.9630333"><ele>63.0</ele><time>2026-04-04T09:54:02.295Z</time></trkpt><trkpt lat="46.0041967" lon="12.9630933"><ele>63.0</ele><time>2026-04-04T09:54:03.29Z</time></trkpt><trkpt lat="46.00411" lon="12.9631517"><ele>63.0</ele><time>2026-04-04T09:54:04.292Z</time></trkpt><trkpt lat="46.0040233" lon="12.9632067"><ele>63.0</ele><time>2026-04-04T09:54:05.294Z</time></trkpt><trkpt lat="46.0039333" lon="12.9632617"><ele>63.0</ele><time>2026-04-04T09:54:06.293Z</time></trkpt><trkpt lat="46.0038333" lon="12.96332"><ele>63.0</ele><time>2026-04-04T09:54:07.293Z</time></trkpt><trkpt lat="46.00373" lon="12.9633833"><ele>63.0</ele><time>2026-04-04T09:54:08.293Z</time></trkpt><trkpt lat="46.0036217" lon="12.9634417"><ele>63.0</ele><time>2026-04-04T09:54:09.291Z</time></trkpt><trkpt lat="46.0035167" lon="12.9634967"><ele>63.0</ele><time>2026-04-04T09:54:10.291Z</time></trkpt><trkpt lat="46.003415" lon="12.96356"><ele>63.0</ele><time>2026-04-04T09:54:11.291Z</time></trkpt><trkpt lat="46.0033083" lon="12.96363"><ele>63.0</ele><time>2026-04-04T09:54:12.289Z</time></trkpt><trkpt lat="46.0032" lon="12.9637117"><ele>63.0</ele><time>2026-04-04T09:54:13.289Z</time></trkpt><trkpt lat="46.003095" lon="12.963805"><ele>63.0</ele><time>2026-04-04T09:54:14.289Z</time></trkpt><trkpt lat="46.002995" lon="12.9638967"><ele>63.0</ele><time>2026-04-04T09:54:15.285Z</time></trkpt><trkpt lat="46.0028967" lon="12.963985"><ele>63.0</ele><time>2026-04-04T09:54:16.286Z</time></trkpt><trkpt lat="46.0027967" lon="12.9640683"><ele>63.0</ele><time>2026-04-04T09:54:17.29Z</time></trkpt><trkpt lat="46.00269" lon="12.9641467"><ele>63.0</ele><time>2026-04-04T09:54:18.288Z</time></trkpt><trkpt lat="46.0025867" lon="12.964215"><ele>63.0</ele><time>2026-04-04T09:54:19.288Z</time></trkpt><trkpt lat="46.002485" lon="12.964275"><ele>62.8</ele><time>2026-04-04T09:54:20.292Z</time></trkpt><trkpt lat="46.0023667" lon="12.96431"><ele>62.599999999999994</ele><time>2026-04-04T09:54:21.29Z</time></trkpt><trkpt lat="46.0022467" lon="12.9643233"><ele>62.400000000000006</ele><time>2026-04-04T09:54:22.287Z</time></trkpt><trkpt lat="46.0021467" lon="12.9643483"><ele>62.2</ele><time>2026-04-04T09:54:23.288Z</time></trkpt><trkpt lat="46.0020583" lon="12.96436"><ele>62.0</ele><time>2026-04-04T09:54:24.292Z</time></trkpt><trkpt lat="46.0019767" lon="12.9643717"><ele>62.0</ele><time>2026-04-04T09:54:25.29Z</time></trkpt><trkpt lat="46.0018733" lon="12.9643667"><ele>62.0</ele><time>2026-04-04T09:54:27.286Z</time></trkpt><trkpt lat="46.0017833" lon="12.9643733"><ele>62.0</ele><time>2026-04-04T09:54:29.288Z</time></trkpt><trkpt lat="46.0016517" lon="12.9644083"><ele>62.0</ele><time>2026-04-04T09:54:31.29Z</time></trkpt><trkpt lat="46.0015717" lon="12.9644583"><ele>62.0</ele><time>2026-04-04T09:54:32.288Z</time></trkpt><trkpt lat="46.0014733" lon="12.9645183"><ele>61.75</ele><time>2026-04-04T09:54:33.287Z</time></trkpt><trkpt lat="46.0013683" lon="12.9645817"><ele>61.5</ele><time>2026-04-04T09:54:34.294Z</time></trkpt><trkpt lat="46.0012467" lon="12.9646533"><ele>61.25</ele><time>2026-04-04T09:54:35.29Z</time></trkpt><trkpt lat="46.001115" lon="12.9647283"><ele>61.0</ele><time>2026-04-04T09:54:36.29Z</time></trkpt><trkpt lat="46.0009883" lon="12.9647983"><ele>61.0</ele><time>2026-04-04T09:54:37.288Z</time></trkpt><trkpt lat="46.0008667" lon="12.9648617"><ele>61.0</ele><time>2026-04-04T09:54:38.29Z</time></trkpt><trkpt lat="46.0007483" lon="12.964925"><ele>61.0</ele><time>2026-04-04T09:54:39.294Z</time></trkpt><trkpt lat="46.0006217" lon="12.9649967"><ele>61.0</ele><time>2026-04-04T09:54:40.289Z</time></trkpt><trkpt lat="46.000485" lon="12.965075"><ele>61.33333333333333</ele><time>2026-04-04T09:54:41.287Z</time></trkpt><trkpt lat="46.000345" lon="12.965155"><ele>61.66666666666667</ele><time>2026-04-04T09:54:42.291Z</time></trkpt><trkpt lat="46.0002083" lon="12.9652417"><ele>62.0</ele><time>2026-04-04T09:54:43.289Z</time></trkpt><trkpt lat="46.00007" lon="12.96534"><ele>62.0</ele><time>2026-04-04T09:54:44.29Z</time></trkpt><trkpt lat="45.999945" lon="12.9654383"><ele>62.0</ele><time>2026-04-04T09:54:45.289Z</time></trkpt><trkpt lat="45.9998283" lon="12.9655467"><ele>62.0</ele><time>2026-04-04T09:54:46.289Z</time></trkpt><trkpt lat="45.9997217" lon="12.9656583"><ele>62.0</ele><time>2026-04-04T09:54:47.287Z</time></trkpt><trkpt lat="45.9996167" lon="12.9657867"><ele>61.75</ele><time>2026-04-04T09:54:48.286Z</time></trkpt><trkpt lat="45.999515" lon="12.965925"><ele>61.5</ele><time>2026-04-04T09:54:49.289Z</time></trkpt><trkpt lat="45.999415" lon="12.96607"><ele>61.25</ele><time>2026-04-04T09:54:50.292Z</time></trkpt><trkpt lat="45.99932" lon="12.96621"><ele>61.0</ele><time>2026-04-04T09:54:51.288Z</time></trkpt><trkpt lat="45.9992383" lon="12.9663333"><ele>60.83333333333333</ele><time>2026-04-04T09:54:52.29Z</time></trkpt><trkpt lat="45.999165" lon="12.96645"><ele>60.666666666666664</ele><time>2026-04-04T09:54:53.287Z</time></trkpt><trkpt lat="45.9991033" lon="12.96655"><ele>60.5</ele><time>2026-04-04T09:54:54.286Z</time></trkpt><trkpt lat="45.99905" lon="12.9666383"><ele>60.33333333333333</ele><time>2026-04-04T09:54:55.29Z</time></trkpt><trkpt lat="45.99899" lon="12.966715"><ele>60.166666666666664</ele><time>2026-04-04T09:54:56.293Z</time></trkpt><trkpt lat="45.99893" lon="12.9667717"><ele>60.0</ele><time>2026-04-04T09:54:57.287Z</time></trkpt><trkpt lat="45.9988233" lon="12.9668017"><ele>60.0</ele><time>2026-04-04T09:54:59.289Z</time></trkpt><trkpt lat="45.99876" lon="12.96674"><ele>60.0</ele><time>2026-04-04T09:55:00.288Z</time></trkpt><trkpt lat="45.9986983" lon="12.96668"><ele>60.0</ele><time>2026-04-04T09:55:01.289Z</time></trkpt><trkpt lat="45.9986433" lon="12.966605"><ele>60.0</ele><time>2026-04-04T09:55:02.287Z</time></trkpt><trkpt lat="45.998595" lon="12.96653"><ele>60.0</ele><time>2026-04-04T09:55:03.288Z</time></trkpt><trkpt lat="45.9985417" lon="12.9664617"><ele>60.0</ele><time>2026-04-04T09:55:04.289Z</time></trkpt><trkpt lat="45.99848" lon="12.966395"><ele>60.0</ele><time>2026-04-04T09:55:05.291Z</time></trkpt><trkpt lat="45.9984133" lon="12.9663133"><ele>59.75</ele><time>2026-04-04T09:55:06.292Z</time></trkpt><trkpt lat="45.998355" lon="12.9662033"><ele>59.5</ele><time>2026-04-04T09:55:07.289Z</time></trkpt><trkpt lat="45.9982967" lon="12.96606"><ele>59.25</ele><time>2026-04-04T09:55:08.295Z</time></trkpt><trkpt lat="45.9982417" lon="12.965895"><ele>59.0</ele><time>2026-04-04T09:55:09.287Z</time></trkpt><trkpt lat="45.998185" lon="12.9657267"><ele>58.75</ele><time>2026-04-04T09:55:10.288Z</time></trkpt><trkpt lat="45.9981267" lon="12.9655683"><ele>58.5</ele><time>2026-04-04T09:55:11.29Z</time></trkpt><trkpt lat="45.9980667" lon="12.9654083"><ele>58.25</ele><time>2026-04-04T09:55:12.29Z</time></trkpt><trkpt lat="45.9980067" lon="12.9652467"><ele>58.0</ele><time>2026-04-04T09:55:13.288Z</time></trkpt><trkpt lat="45.997945" lon="12.9650833"><ele>58.25</ele><time>2026-04-04T09:55:14.292Z</time></trkpt><trkpt lat="45.99789" lon="12.9649167"><ele>58.5</ele><time>2026-04-04T09:55:15.29Z</time></trkpt><trkpt lat="45.9978417" lon="12.9647617"><ele>58.75</ele><time>2026-04-04T09:55:16.291Z</time></trkpt><trkpt lat="45.9977933" lon="12.9646167"><ele>59.0</ele><time>2026-04-04T09:55:17.29Z</time></trkpt><trkpt lat="45.9977433" lon="12.9644767"><ele>59.0</ele><time>2026-04-04T09:55:18.289Z</time></trkpt><trkpt lat="45.9976967" lon="12.9643417"><ele>59.00000000000001</ele><time>2026-04-04T09:55:19.288Z</time></trkpt><trkpt lat="45.9976483" lon="12.9642067"><ele>59.00000000000001</ele><time>2026-04-04T09:55:20.287Z</time></trkpt><trkpt lat="45.9975983" lon="12.9640617"><ele>59.0</ele><time>2026-04-04T09:55:21.292Z</time></trkpt><trkpt lat="45.9975367" lon="12.9639167"><ele>59.0</ele><time>2026-04-04T09:55:22.289Z</time></trkpt><trkpt lat="45.9974783" lon="12.963775"><ele>58.800000000000004</ele><time>2026-04-04T09:55:23.29Z</time></trkpt><trkpt lat="45.997425" lon="12.9636317"><ele>58.60000000000001</ele><time>2026-04-04T09:55:24.292Z</time></trkpt><trkpt lat="45.99737" lon="12.963495"><ele>58.4</ele><time>2026-04-04T09:55:25.288Z</time></trkpt><trkpt lat="45.997315" lon="12.9633683"><ele>58.2</ele><time>2026-04-04T09:55:26.291Z</time></trkpt><trkpt lat="45.99726" lon="12.9632483"><ele>58.0</ele><time>2026-04-04T09:55:27.289Z</time></trkpt><trkpt lat="45.9972017" lon="12.9631183"><ele>58.0</ele><time>2026-04-04T09:55:28.291Z</time></trkpt><trkpt lat="45.9971433" lon="12.962975"><ele>58.0</ele><time>2026-04-04T09:55:29.29Z</time></trkpt><trkpt lat="45.9970833" lon="12.9628183"><ele>58.0</ele><time>2026-04-04T09:55:30.288Z</time></trkpt><trkpt lat="45.997025" lon="12.9626583"><ele>58.0</ele><time>2026-04-04T09:55:31.289Z</time></trkpt><trkpt lat="45.9969633" lon="12.9625067"><ele>57.75</ele><time>2026-04-04T09:55:32.288Z</time></trkpt><trkpt lat="45.9968933" lon="12.962365"><ele>57.5</ele><time>2026-04-04T09:55:33.286Z</time></trkpt><trkpt lat="45.9968117" lon="12.9622367"><ele>57.25</ele><time>2026-04-04T09:55:34.288Z</time></trkpt><trkpt lat="45.9967183" lon="12.9621183"><ele>57.0</ele><time>2026-04-04T09:55:35.288Z</time></trkpt><trkpt lat="45.99662" lon="12.9620183"><ele>57.0</ele><time>2026-04-04T09:55:36.29Z</time></trkpt><trkpt lat="45.9965167" lon="12.96193"><ele>57.0</ele><time>2026-04-04T09:55:37.288Z</time></trkpt><trkpt lat="45.996405" lon="12.961845"><ele>57.0</ele><time>2026-04-04T09:55:38.291Z</time></trkpt><trkpt lat="45.99629" lon="12.9617583"><ele>57.0</ele><time>2026-04-04T09:55:39.288Z</time></trkpt><trkpt lat="45.9961683" lon="12.9616767"><ele>57.0</ele><time>2026-04-04T09:55:40.289Z</time></trkpt><trkpt lat="45.9960517" lon="12.9616017"><ele>57.0</ele><time>2026-04-04T09:55:41.288Z</time></trkpt><trkpt lat="45.9959483" lon="12.96153"><ele>57.0</ele><time>2026-04-04T09:55:42.291Z</time></trkpt><trkpt lat="45.99585" lon="12.961465"><ele>57.0</ele><time>2026-04-04T09:55:43.29Z</time></trkpt><trkpt lat="45.9957633" lon="12.96141"><ele>57.0</ele><time>2026-04-04T09:55:44.29Z</time></trkpt><trkpt lat="45.9956933" lon="12.9613667"><ele>57.0</ele><time>2026-04-04T09:55:45.291Z</time></trkpt><trkpt lat="45.9956283" lon="12.9613417"><ele>57.0</ele><time>2026-04-04T09:55:46.289Z</time></trkpt><trkpt lat="45.9955617" lon="12.9613367"><ele>57.0</ele><time>2026-04-04T09:55:47.286Z</time></trkpt><trkpt lat="45.99549" lon="12.9613633"><ele>57.0</ele><time>2026-04-04T09:55:48.29Z</time></trkpt><trkpt lat="45.9954083" lon="12.9614083"><ele>57.0</ele><time>2026-04-04T09:55:49.288Z</time></trkpt><trkpt lat="45.995315" lon="12.961455"><ele>57.0</ele><time>2026-04-04T09:55:50.291Z</time></trkpt><trkpt lat="45.9952133" lon="12.9615017"><ele>57.0</ele><time>2026-04-04T09:55:51.289Z</time></trkpt><trkpt lat="45.9951117" lon="12.9615433"><ele>57.0</ele><time>2026-04-04T09:55:52.29Z</time></trkpt><trkpt lat="45.9950133" lon="12.9615833"><ele>57.0</ele><time>2026-04-04T09:55:53.29Z</time></trkpt><trkpt lat="45.99492" lon="12.9616233"><ele>57.0</ele><time>2026-04-04T09:55:54.288Z</time></trkpt><trkpt lat="45.9948267" lon="12.96165"><ele>57.0</ele><time>2026-04-04T09:55:55.288Z</time></trkpt><trkpt lat="45.9947283" lon="12.96166"><ele>56.5</ele><time>2026-04-04T09:55:56.289Z</time></trkpt><trkpt lat="45.9946267" lon="12.961655"><ele>56.0</ele><time>2026-04-04T09:55:57.293Z</time></trkpt><trkpt lat="45.9945383" lon="12.9616383"><ele>55.5</ele><time>2026-04-04T09:55:58.287Z</time></trkpt><trkpt lat="45.994455" lon="12.9616183"><ele>55.0</ele><time>2026-04-04T09:55:59.29Z</time></trkpt><trkpt lat="45.99438" lon="12.9616"><ele>54.5</ele><time>2026-04-04T09:56:00.292Z</time></trkpt><trkpt lat="45.99431" lon="12.9615867"><ele>54.0</ele><time>2026-04-04T09:56:01.289Z</time></trkpt><trkpt lat="45.994245" lon="12.961575"><ele>54.2</ele><time>2026-04-04T09:56:02.297Z</time></trkpt><trkpt lat="45.99413" lon="12.9615483"><ele>54.400000000000006</ele><time>2026-04-04T09:56:04.29Z</time></trkpt><trkpt lat="45.99404" lon="12.9615317"><ele>54.6</ele><time>2026-04-04T09:56:06.291Z</time></trkpt><trkpt lat="45.9939483" lon="12.9615183"><ele>54.8</ele><time>2026-04-04T09:57:25.289Z</time></trkpt><trkpt lat="45.9938717" lon="12.9615083"><ele>55.0</ele><time>2026-04-04T09:57:26.29Z</time></trkpt><trkpt lat="45.9937733" lon="12.9614983"><ele>55.0</ele><time>2026-04-04T09:57:27.287Z</time></trkpt><trkpt lat="45.9936617" lon="12.96149"><ele>55.0</ele><time>2026-04-04T09:57:28.291Z</time></trkpt><trkpt lat="45.9935417" lon="12.9614883"><ele>55.0</ele><time>2026-04-04T09:57:29.288Z</time></trkpt><trkpt lat="45.9934167" lon="12.9614867"><ele>55.0</ele><time>2026-04-04T09:57:30.291Z</time></trkpt><trkpt lat="45.99329" lon="12.9614833"><ele>54.6</ele><time>2026-04-04T09:57:31.289Z</time></trkpt><trkpt lat="45.993175" lon="12.9614767"><ele>54.2</ele><time>2026-04-04T09:57:32.296Z</time></trkpt><trkpt lat="45.99307" lon="12.9614733"><ele>53.8</ele><time>2026-04-04T09:57:33.29Z</time></trkpt><trkpt lat="45.9929717" lon="12.9614633"><ele>53.4</ele><time>2026-04-04T09:57:34.289Z</time></trkpt><trkpt lat="45.9928767" lon="12.9614533"><ele>53.0</ele><time>2026-04-04T09:57:35.291Z</time></trkpt><trkpt lat="45.9927833" lon="12.961445"><ele>53.00000000000001</ele><time>2026-04-04T09:57:36.287Z</time></trkpt><trkpt lat="45.9926917" lon="12.9614367"><ele>53.0</ele><time>2026-04-04T09:57:37.291Z</time></trkpt><trkpt lat="45.992605" lon="12.96143"><ele>53.0</ele><time>2026-04-04T09:57:38.291Z</time></trkpt><trkpt lat="45.9925217" lon="12.96142"><ele>53.0</ele><time>2026-04-04T09:57:39.286Z</time></trkpt><trkpt lat="45.9924417" lon="12.9614017"><ele>53.00000000000001</ele><time>2026-04-04T09:57:40.287Z</time></trkpt><trkpt lat="45.9923717" lon="12.96138"><ele>53.0</ele><time>2026-04-04T09:57:41.292Z</time></trkpt><trkpt lat="45.9923017" lon="12.96136"><ele>53.50000000000001</ele><time>2026-04-04T09:57:42.288Z</time></trkpt><trkpt lat="45.9922317" lon="12.9613267"><ele>54.0</ele><time>2026-04-04T09:57:43.289Z</time></trkpt><trkpt lat="45.9921617" lon="12.9612867"><ele>54.5</ele><time>2026-04-04T09:57:44.286Z</time></trkpt><trkpt lat="45.9920933" lon="12.96124"><ele>55.0</ele><time>2026-04-04T09:57:45.29Z</time></trkpt><trkpt lat="45.9920217" lon="12.96119"><ele>55.50000000000001</ele><time>2026-04-04T09:57:46.293Z</time></trkpt><trkpt lat="45.9919367" lon="12.961145"><ele>56.0</ele><time>2026-04-04T09:57:47.288Z</time></trkpt><trkpt lat="45.99184" lon="12.96111"><ele>56.0</ele><time>2026-04-04T09:57:48.289Z</time></trkpt><trkpt lat="45.9917317" lon="12.9610767"><ele>56.0</ele><time>2026-04-04T09:57:49.289Z</time></trkpt><trkpt lat="45.99161" lon="12.9610333"><ele>56.0</ele><time>2026-04-04T09:57:50.289Z</time></trkpt><trkpt lat="45.991475" lon="12.9609867"><ele>56.0</ele><time>2026-04-04T09:57:51.288Z</time></trkpt><trkpt lat="45.9913417" lon="12.9609333"><ele>55.5</ele><time>2026-04-04T09:57:52.292Z</time></trkpt><trkpt lat="45.991205" lon="12.9608833"><ele>55.0</ele><time>2026-04-04T09:57:53.288Z</time></trkpt><trkpt lat="45.99107" lon="12.9608467"><ele>54.5</ele><time>2026-04-04T09:57:54.287Z</time></trkpt><trkpt lat="45.9909417" lon="12.9608167"><ele>54.0</ele><time>2026-04-04T09:57:55.287Z</time></trkpt><trkpt lat="45.9908167" lon="12.9607933"><ele>53.75</ele><time>2026-04-04T09:57:56.29Z</time></trkpt><trkpt lat="45.9906967" lon="12.9607733"><ele>53.5</ele><time>2026-04-04T09:57:57.287Z</time></trkpt><trkpt lat="45.99058" lon="12.9607467"><ele>53.25</ele><time>2026-04-04T09:57:58.288Z</time></trkpt><trkpt lat="45.9904583" lon="12.9607233"><ele>53.0</ele><time>2026-04-04T09:57:59.29Z</time></trkpt><trkpt lat="45.9903367" lon="12.9607117"><ele>53.0</ele><time>2026-04-04T09:58:00.29Z</time></trkpt><trkpt lat="45.9902133" lon="12.9607133"><ele>53.0</ele><time>2026-04-04T09:58:01.286Z</time></trkpt><trkpt lat="45.9900933" lon="12.9607267"><ele>53.0</ele><time>2026-04-04T09:58:02.289Z</time></trkpt><trkpt lat="45.9899783" lon="12.960735"><ele>53.0</ele><time>2026-04-04T09:58:03.289Z</time></trkpt><trkpt lat="45.9898617" lon="12.9607483"><ele>52.75</ele><time>2026-04-04T09:58:04.289Z</time></trkpt><trkpt lat="45.989745" lon="12.960765"><ele>52.5</ele><time>2026-04-04T09:58:05.292Z</time></trkpt><trkpt lat="45.9896267" lon="12.96078"><ele>52.25</ele><time>2026-04-04T09:58:06.294Z</time></trkpt><trkpt lat="45.98951" lon="12.9607883"><ele>52.0</ele><time>2026-04-04T09:58:07.29Z</time></trkpt><trkpt lat="45.98941" lon="12.9607917"><ele>51.99999999999999</ele><time>2026-04-04T09:58:08.29Z</time></trkpt><trkpt lat="45.989325" lon="12.96079"><ele>52.0</ele><time>2026-04-04T09:58:09.287Z</time></trkpt><trkpt lat="45.9892517" lon="12.9607667"><ele>52.0</ele><time>2026-04-04T09:58:10.293Z</time></trkpt><trkpt lat="45.9891833" lon="12.960725"><ele>52.0</ele><time>2026-04-04T09:58:11.289Z</time></trkpt><trkpt lat="45.989115" lon="12.9606817"><ele>51.99999999999999</ele><time>2026-04-04T09:58:12.287Z</time></trkpt><trkpt lat="45.9890317" lon="12.9606417"><ele>52.0</ele><time>2026-04-04T09:58:13.29Z</time></trkpt><trkpt lat="45.98893" lon="12.9606083"><ele>52.0</ele><time>2026-04-04T09:58:14.29Z</time></trkpt><trkpt lat="45.9888167" lon="12.9605833"><ele>52.0</ele><time>2026-04-04T09:58:15.291Z</time></trkpt><trkpt lat="45.9887" lon="12.96056"><ele>52.0</ele><time>2026-04-04T09:58:16.288Z</time></trkpt><trkpt lat="45.988585" lon="12.9605367"><ele>52.0</ele><time>2026-04-04T09:58:17.288Z</time></trkpt><trkpt lat="45.9884783" lon="12.9605167"><ele>52.0</ele><time>2026-04-04T09:58:18.285Z</time></trkpt><trkpt lat="45.98837" lon="12.9604967"><ele>52.0</ele><time>2026-04-04T09:58:19.288Z</time></trkpt><trkpt lat="45.9882583" lon="12.96048"><ele>52.0</ele><time>2026-04-04T09:58:20.288Z</time></trkpt><trkpt lat="45.9881417" lon="12.96046"><ele>52.0</ele><time>2026-04-04T09:58:21.288Z</time></trkpt><trkpt lat="45.9880233" lon="12.960435"><ele>52.0</ele><time>2026-04-04T09:58:22.287Z</time></trkpt><trkpt lat="45.987905" lon="12.9603983"><ele>52.0</ele><time>2026-04-04T09:58:23.288Z</time></trkpt><trkpt lat="45.98779" lon="12.96035"><ele>52.0</ele><time>2026-04-04T09:58:24.29Z</time></trkpt><trkpt lat="45.9876767" lon="12.9603017"><ele>52.0</ele><time>2026-04-04T09:58:25.289Z</time></trkpt><trkpt lat="45.987575" lon="12.9602567"><ele>52.0</ele><time>2026-04-04T09:58:26.289Z</time></trkpt><trkpt lat="45.987475" lon="12.9602183"><ele>52.0</ele><time>2026-04-04T09:58:27.288Z</time></trkpt><trkpt lat="45.9873817" lon="12.96019"><ele>52.0</ele><time>2026-04-04T09:58:28.292Z</time></trkpt><trkpt lat="45.9872917" lon="12.9601733"><ele>52.0</ele><time>2026-04-04T09:58:29.288Z</time></trkpt><trkpt lat="45.9871967" lon="12.9601633"><ele>52.0</ele><time>2026-04-04T09:58:30.289Z</time></trkpt><trkpt lat="45.9870917" lon="12.960155"><ele>52.0</ele><time>2026-04-04T09:58:31.289Z</time></trkpt><trkpt lat="45.9869767" lon="12.9601383"><ele>52.0</ele><time>2026-04-04T09:58:32.287Z</time></trkpt><trkpt lat="45.9868583" lon="12.96012"><ele>52.0</ele><time>2026-04-04T09:58:33.292Z</time></trkpt><trkpt lat="45.9867367" lon="12.9601033"><ele>52.0</ele><time>2026-04-04T09:58:34.288Z</time></trkpt><trkpt lat="45.9866167" lon="12.960085"><ele>51.5</ele><time>2026-04-04T09:58:35.291Z</time></trkpt><trkpt lat="45.986495" lon="12.96007"><ele>51.0</ele><time>2026-04-04T09:58:36.289Z</time></trkpt><trkpt lat="45.986385" lon="12.9600517"><ele>50.5</ele><time>2026-04-04T09:58:37.286Z</time></trkpt><trkpt lat="45.9862717" lon="12.9600383"><ele>50.0</ele><time>2026-04-04T09:58:38.288Z</time></trkpt><trkpt lat="45.9861617" lon="12.9600217"><ele>50.0</ele><time>2026-04-04T09:58:39.288Z</time></trkpt><trkpt lat="45.9860533" lon="12.9600017"><ele>50.0</ele><time>2026-04-04T09:58:40.29Z</time></trkpt><trkpt lat="45.98595" lon="12.9599833"><ele>50.0</ele><time>2026-04-04T09:58:41.29Z</time></trkpt><trkpt lat="45.9858483" lon="12.9599633"><ele>50.0</ele><time>2026-04-04T09:58:42.291Z</time></trkpt><trkpt lat="45.98575" lon="12.9599417"><ele>50.0</ele><time>2026-04-04T09:58:43.289Z</time></trkpt><trkpt lat="45.98565" lon="12.9599283"><ele>50.16666666666667</ele><time>2026-04-04T09:58:44.288Z</time></trkpt><trkpt lat="45.98555" lon="12.95992"><ele>50.333333333333336</ele><time>2026-04-04T09:58:45.29Z</time></trkpt><trkpt lat="45.9854583" lon="12.9599233"><ele>50.5</ele><time>2026-04-04T09:58:46.289Z</time></trkpt><trkpt lat="45.9853717" lon="12.9599283"><ele>50.66666666666667</ele><time>2026-04-04T09:58:47.289Z</time></trkpt><trkpt lat="45.9852933" lon="12.959935"><ele>50.833333333333336</ele><time>2026-04-04T09:58:48.289Z</time></trkpt><trkpt lat="45.985215" lon="12.9599467"><ele>51.0</ele><time>2026-04-04T09:58:49.29Z</time></trkpt><trkpt lat="45.98514" lon="12.959965"><ele>51.0</ele><time>2026-04-04T09:58:50.29Z</time></trkpt><trkpt lat="45.98507" lon="12.95999"><ele>51.0</ele><time>2026-04-04T09:58:51.288Z</time></trkpt><trkpt lat="45.9850017" lon="12.9600333"><ele>51.0</ele><time>2026-04-04T09:58:52.289Z</time></trkpt><trkpt lat="45.98494" lon="12.960085"><ele>51.0</ele><time>2026-04-04T09:58:53.29Z</time></trkpt><trkpt lat="45.9848817" lon="12.9601333"><ele>51.0</ele><time>2026-04-04T09:58:54.289Z</time></trkpt><trkpt lat="45.984825" lon="12.9601767"><ele>51.0</ele><time>2026-04-04T09:58:55.288Z</time></trkpt><trkpt lat="45.984745" lon="12.9602433"><ele>51.0</ele><time>2026-04-04T09:58:57.292Z</time></trkpt><trkpt lat="45.984685" lon="12.960275"><ele>50.833333333333336</ele><time>2026-04-04T09:59:00.286Z</time></trkpt><trkpt lat="45.984615" lon="12.9602533"><ele>50.66666666666667</ele><time>2026-04-04T09:59:03.286Z</time></trkpt><trkpt lat="45.9844917" lon="12.9602617"><ele>50.5</ele><time>2026-04-04T09:59:05.291Z</time></trkpt><trkpt lat="45.98442" lon="12.960295"><ele>50.333333333333336</ele><time>2026-04-04T09:59:06.296Z</time></trkpt><trkpt lat="45.9843417" lon="12.9603283"><ele>50.16666666666667</ele><time>2026-04-04T09:59:07.289Z</time></trkpt><trkpt lat="45.98426" lon="12.9603433"><ele>50.0</ele><time>2026-04-04T09:59:08.289Z</time></trkpt><trkpt lat="45.9841783" lon="12.960335"><ele>50.0</ele><time>2026-04-04T09:59:09.289Z</time></trkpt><trkpt lat="45.9840983" lon="12.9603067"><ele>50.0</ele><time>2026-04-04T09:59:10.289Z</time></trkpt><trkpt lat="45.9840067" lon="12.9602683"><ele>50.0</ele><time>2026-04-04T09:59:11.291Z</time></trkpt><trkpt lat="45.9838967" lon="12.960225"><ele>50.0</ele><time>2026-04-04T09:59:12.288Z</time></trkpt><trkpt lat="45.9837733" lon="12.96018"><ele>50.0</ele><time>2026-04-04T09:59:13.288Z</time></trkpt><trkpt lat="45.983645" lon="12.9601167"><ele>50.0</ele><time>2026-04-04T09:59:14.291Z</time></trkpt><trkpt lat="45.9835067" lon="12.960045"><ele>50.0</ele><time>2026-04-04T09:59:15.285Z</time></trkpt><trkpt lat="45.9833633" lon="12.9599767"><ele>50.0</ele><time>2026-04-04T09:59:16.288Z</time></trkpt><trkpt lat="45.9832183" lon="12.9599133"><ele>49.75</ele><time>2026-04-04T09:59:17.29Z</time></trkpt><trkpt lat="45.9830717" lon="12.9598583"><ele>49.5</ele><time>2026-04-04T09:59:18.288Z</time></trkpt><trkpt lat="45.9829333" lon="12.9598067"><ele>49.25</ele><time>2026-04-04T09:59:19.292Z</time></trkpt><trkpt lat="45.9828083" lon="12.9597583"><ele>49.0</ele><time>2026-04-04T09:59:20.29Z</time></trkpt><trkpt lat="45.982695" lon="12.959715"><ele>49.0</ele><time>2026-04-04T09:59:21.293Z</time></trkpt><trkpt lat="45.98259" lon="12.95968"><ele>49.0</ele><time>2026-04-04T09:59:22.289Z</time></trkpt><trkpt lat="45.98249" lon="12.9596517"><ele>49.0</ele><time>2026-04-04T09:59:23.289Z</time></trkpt><trkpt lat="45.9823967" lon="12.9596283"><ele>49.0</ele><time>2026-04-04T09:59:24.288Z</time></trkpt><trkpt lat="45.98231" lon="12.959605"><ele>49.0</ele><time>2026-04-04T09:59:25.294Z</time></trkpt><trkpt lat="45.9822317" lon="12.95958"><ele>48.800000000000004</ele><time>2026-04-04T09:59:26.291Z</time></trkpt><trkpt lat="45.98216" lon="12.959555"><ele>48.6</ele><time>2026-04-04T09:59:27.288Z</time></trkpt><trkpt lat="45.9820933" lon="12.9595317"><ele>48.4</ele><time>2026-04-04T09:59:28.286Z</time></trkpt><trkpt lat="45.9820317" lon="12.95951"><ele>48.2</ele><time>2026-04-04T09:59:29.288Z</time></trkpt><trkpt lat="45.9819117" lon="12.95947"><ele>48.0</ele><time>2026-04-04T09:59:31.287Z</time></trkpt><trkpt lat="45.9817917" lon="12.9594317"><ele>47.99999999999999</ele><time>2026-04-04T09:59:33.287Z</time></trkpt><trkpt lat="45.9817267" lon="12.9594117"><ele>48.0</ele><time>2026-04-04T09:59:34.289Z</time></trkpt><trkpt lat="45.98166" lon="12.9593883"><ele>48.0</ele><time>2026-04-04T09:59:35.294Z</time></trkpt><trkpt lat="45.9815883" lon="12.9593633"><ele>48.0</ele><time>2026-04-04T09:59:36.289Z</time></trkpt><trkpt lat="45.9815167" lon="12.95934"><ele>48.0</ele><time>2026-04-04T09:59:37.287Z</time></trkpt><trkpt lat="45.9814417" lon="12.959315"><ele>47.99999999999999</ele><time>2026-04-04T09:59:38.295Z</time></trkpt><trkpt lat="45.9813683" lon="12.9592883"><ele>48.0</ele><time>2026-04-04T09:59:39.289Z</time></trkpt><trkpt lat="45.9812933" lon="12.95926"><ele>48.14285714285714</ele><time>2026-04-04T09:59:40.288Z</time></trkpt><trkpt lat="45.9812167" lon="12.9592333"><ele>48.285714285714285</ele><time>2026-04-04T09:59:41.288Z</time></trkpt><trkpt lat="45.9811433" lon="12.9592117"><ele>48.42857142857143</ele><time>2026-04-04T09:59:42.291Z</time></trkpt><trkpt lat="45.9810767" lon="12.9591917"><ele>48.57142857142857</ele><time>2026-04-04T09:59:43.287Z</time></trkpt><trkpt lat="45.9810117" lon="12.9591717"><ele>48.714285714285715</ele><time>2026-04-04T09:59:44.289Z</time></trkpt><trkpt lat="45.9809383" lon="12.95915"><ele>48.857142857142854</ele><time>2026-04-04T09:59:45.289Z</time></trkpt><trkpt lat="45.9808667" lon="12.9591283"><ele>49.0</ele><time>2026-04-04T09:59:46.29Z</time></trkpt><trkpt lat="45.9808" lon="12.9591017"><ele>49.0</ele><time>2026-04-04T09:59:47.291Z</time></trkpt><trkpt lat="45.980735" lon="12.9590783"><ele>49.0</ele><time>2026-04-04T09:59:48.291Z</time></trkpt><trkpt lat="45.9806683" lon="12.9590533"><ele>49.0</ele><time>2026-04-04T09:59:49.293Z</time></trkpt><trkpt lat="45.9806033" lon="12.9590217"><ele>49.0</ele><time>2026-04-04T09:59:50.291Z</time></trkpt><trkpt lat="45.980545" lon="12.9589867"><ele>49.0</ele><time>2026-04-04T09:59:51.296Z</time></trkpt><trkpt lat="45.9804467" lon="12.9589517"><ele>49.0</ele><time>2026-04-04T09:59:53.288Z</time></trkpt><trkpt lat="45.9803833" lon="12.95901"><ele>49.0</ele><time>2026-04-04T09:59:55.289Z</time></trkpt><trkpt lat="45.9804017" lon="12.9591133"><ele>49.0</ele><time>2026-04-04T09:59:57.292Z</time></trkpt><trkpt lat="45.9805117" lon="12.9591883"><ele>49.0</ele><time>2026-04-04T09:59:59.287Z</time></trkpt><trkpt lat="45.9805967" lon="12.9592117"><ele>49.0</ele><time>2026-04-04T10:00:00.288Z</time></trkpt><trkpt lat="45.9806833" lon="12.9592283"><ele>49.0</ele><time>2026-04-04T10:00:01.294Z</time></trkpt><trkpt lat="45.9807667" lon="12.9592333"><ele>49.0</ele><time>2026-04-04T10:00:02.288Z</time></trkpt><trkpt lat="45.9808417" lon="12.9592333"><ele>49.0</ele><time>2026-04-04T10:00:03.29Z</time></trkpt><trkpt lat="45.9809083" lon="12.9592283"><ele>49.0</ele><time>2026-04-04T10:00:04.289Z</time></trkpt><trkpt lat="45.98102" lon="12.959225"><ele>49.0</ele><time>2026-04-04T10:00:06.29Z</time></trkpt><trkpt lat="45.981105" lon="12.9592317"><ele>49.0</ele><time>2026-04-04T10:00:08.289Z</time></trkpt><trkpt lat="45.9811983" lon="12.9592517"><ele>49.0</ele><time>2026-04-04T10:00:10.29Z</time></trkpt><trkpt lat="45.98131" lon="12.959285"><ele>49.0</ele><time>2026-04-04T10:00:12.29Z</time></trkpt><trkpt lat="45.9813833" lon="12.9593067"><ele>49.0</ele><time>2026-04-04T10:00:13.286Z</time></trkpt><trkpt lat="45.981475" lon="12.9593317"><ele>49.0</ele><time>2026-04-04T10:00:14.292Z</time></trkpt><trkpt lat="45.9815883" lon="12.9593633"><ele>49.0</ele><time>2026-04-04T10:00:15.291Z</time></trkpt><trkpt lat="45.9817117" lon="12.9594033"><ele>49.0</ele><time>2026-04-04T10:00:16.289Z</time></trkpt><trkpt lat="45.9818333" lon="12.9594467"><ele>48.75</ele><time>2026-04-04T10:00:17.288Z</time></trkpt><trkpt lat="45.9819483" lon="12.959485"><ele>48.5</ele><time>2026-04-04T10:00:18.29Z</time></trkpt><trkpt lat="45.982065" lon="12.9595217"><ele>48.25</ele><time>2026-04-04T10:00:19.29Z</time></trkpt><trkpt lat="45.9821883" lon="12.9595617"><ele>48.0</ele><time>2026-04-04T10:00:20.296Z</time></trkpt><trkpt lat="45.982305" lon="12.9596017"><ele>48.0</ele><time>2026-04-04T10:00:21.297Z</time></trkpt><trkpt lat="45.9824183" lon="12.95964"><ele>48.0</ele><time>2026-04-04T10:00:22.287Z</time></trkpt><trkpt lat="45.982525" lon="12.9596717"><ele>48.0</ele><time>2026-04-04T10:00:23.294Z</time></trkpt><trkpt lat="45.982625" lon="12.959705"><ele>48.0</ele><time>2026-04-04T10:00:24.291Z</time></trkpt><trkpt lat="45.982715" lon="12.959735"><ele>48.0</ele><time>2026-04-04T10:00:25.287Z</time></trkpt><trkpt lat="45.9828067" lon="12.9597667"><ele>48.166666666666664</ele><time>2026-04-04T10:00:26.296Z</time></trkpt><trkpt lat="45.9828967" lon="12.9598"><ele>48.33333333333333</ele><time>2026-04-04T10:00:27.291Z</time></trkpt><trkpt lat="45.9829767" lon="12.9598333"><ele>48.5</ele><time>2026-04-04T10:00:28.288Z</time></trkpt><trkpt lat="45.9830567" lon="12.9598617"><ele>48.666666666666664</ele><time>2026-04-04T10:00:29.29Z</time></trkpt><trkpt lat="45.9831383" lon="12.95989"><ele>48.83333333333333</ele><time>2026-04-04T10:00:30.289Z</time></trkpt><trkpt lat="45.983215" lon="12.959915"><ele>49.0</ele><time>2026-04-04T10:00:31.293Z</time></trkpt><trkpt lat="45.9832817" lon="12.9599417"><ele>49.0</ele><time>2026-04-04T10:00:32.29Z</time></trkpt><trkpt lat="45.9833467" lon="12.9599683"><ele>49.0</ele><time>2026-04-04T10:00:33.287Z</time></trkpt><trkpt lat="45.983415" lon="12.9599917"><ele>49.0</ele><time>2026-04-04T10:00:34.287Z</time></trkpt><trkpt lat="45.9834817" lon="12.9600217"><ele>49.0</ele><time>2026-04-04T10:00:35.288Z</time></trkpt><trkpt lat="45.9835467" lon="12.9600567"><ele>49.0</ele><time>2026-04-04T10:00:36.29Z</time></trkpt><trkpt lat="45.9836067" lon="12.9600917"><ele>49.0</ele><time>2026-04-04T10:00:37.291Z</time></trkpt><trkpt lat="45.9836867" lon="12.9601267"><ele>49.0</ele><time>2026-04-04T10:00:39.29Z</time></trkpt><trkpt lat="45.9837117" lon="12.96022"><ele>49.0</ele><time>2026-04-04T10:00:42.289Z</time></trkpt><trkpt lat="45.983605" lon="12.9603017"><ele>49.0</ele><time>2026-04-04T10:00:45.289Z</time></trkpt><trkpt lat="45.983525" lon="12.9603367"><ele>49.0</ele><time>2026-04-04T10:00:46.289Z</time></trkpt><trkpt lat="45.9834283" lon="12.960385"><ele>49.0</ele><time>2026-04-04T10:00:47.29Z</time></trkpt><trkpt lat="45.983315" lon="12.9604417"><ele>49.0</ele><time>2026-04-04T10:00:48.288Z</time></trkpt><trkpt lat="45.9831917" lon="12.9605083"><ele>49.0</ele><time>2026-04-04T10:00:49.294Z</time></trkpt><trkpt lat="45.9830533" lon="12.960585"><ele>49.0</ele><time>2026-04-04T10:00:50.29Z</time></trkpt><trkpt lat="45.9829133" lon="12.96066"><ele>49.0</ele><time>2026-04-04T10:00:51.296Z</time></trkpt><trkpt lat="45.98278" lon="12.9607283"><ele>49.0</ele><time>2026-04-04T10:00:52.288Z</time></trkpt><trkpt lat="45.9826517" lon="12.9607967"><ele>49.0</ele><time>2026-04-04T10:00:53.29Z</time></trkpt><trkpt lat="45.9825217" lon="12.9608617"><ele>49.0</ele><time>2026-04-04T10:00:54.286Z</time></trkpt><trkpt lat="45.982395" lon="12.96093"><ele>49.0</ele><time>2026-04-04T10:00:55.286Z</time></trkpt><trkpt lat="45.9822667" lon="12.96099"><ele>49.0</ele><time>2026-04-04T10:00:56.288Z</time></trkpt><trkpt lat="45.9821367" lon="12.9610433"><ele>49.0</ele><time>2026-04-04T10:00:57.286Z</time></trkpt><trkpt lat="45.9820017" lon="12.9610883"><ele>49.0</ele><time>2026-04-04T10:00:58.29Z</time></trkpt><trkpt lat="45.98187" lon="12.9611267"><ele>49.0</ele><time>2026-04-04T10:00:59.287Z</time></trkpt><trkpt lat="45.9817467" lon="12.961165"><ele>49.0</ele><time>2026-04-04T10:01:00.286Z</time></trkpt><trkpt lat="45.981625" lon="12.9612033"><ele>49.0</ele><time>2026-04-04T10:01:01.288Z</time></trkpt><trkpt lat="45.98151" lon="12.961245"><ele>49.0</ele><time>2026-04-04T10:01:02.288Z</time></trkpt><trkpt lat="45.9814033" lon="12.96129"><ele>49.0</ele><time>2026-04-04T10:01:03.288Z</time></trkpt><trkpt lat="45.9813033" lon="12.9613333"><ele>49.0</ele><time>2026-04-04T10:01:04.291Z</time></trkpt><trkpt lat="45.9812083" lon="12.9613783"><ele>49.0</ele><time>2026-04-04T10:01:05.29Z</time></trkpt><trkpt lat="45.9811217" lon="12.9614183"><ele>48.99999999999999</ele><time>2026-04-04T10:01:06.29Z</time></trkpt><trkpt lat="45.9810417" lon="12.96146"><ele>49.0</ele><time>2026-04-04T10:01:07.287Z</time></trkpt><trkpt lat="45.98097" lon="12.9615"><ele>49.0</ele><time>2026-04-04T10:01:08.288Z</time></trkpt><trkpt lat="45.9809017" lon="12.9615483"><ele>49.0</ele><time>2026-04-04T10:01:09.287Z</time></trkpt><trkpt lat="45.9808283" lon="12.9616017"><ele>48.99999999999999</ele><time>2026-04-04T10:01:10.287Z</time></trkpt><trkpt lat="45.9807483" lon="12.9616717"><ele>49.0</ele><time>2026-04-04T10:01:11.286Z</time></trkpt><trkpt lat="45.9806583" lon="12.9617633"><ele>49.0</ele><time>2026-04-04T10:01:12.287Z</time></trkpt><trkpt lat="45.98056" lon="12.9618633"><ele>49.0</ele><time>2026-04-04T10:01:13.287Z</time></trkpt><trkpt lat="45.9804633" lon="12.9619617"><ele>49.0</ele><time>2026-04-04T10:01:14.294Z</time></trkpt><trkpt lat="45.9803683" lon="12.9620517"><ele>49.0</ele><time>2026-04-04T10:01:15.289Z</time></trkpt><trkpt lat="45.98028" lon="12.9621383"><ele>49.0</ele><time>2026-04-04T10:01:16.286Z</time></trkpt><trkpt lat="45.9801933" lon="12.962215"><ele>49.0</ele><time>2026-04-04T10:01:17.288Z</time></trkpt><trkpt lat="45.9801133" lon="12.96229"><ele>49.0</ele><time>2026-04-04T10:01:18.291Z</time></trkpt><trkpt lat="45.9800367" lon="12.9623667"><ele>49.0</ele><time>2026-04-04T10:01:19.291Z</time></trkpt><trkpt lat="45.97996" lon="12.9624383"><ele>49.0</ele><time>2026-04-04T10:01:20.291Z</time></trkpt><trkpt lat="45.9798833" lon="12.962505"><ele>48.49999999999999</ele><time>2026-04-04T10:01:21.292Z</time></trkpt><trkpt lat="45.9798117" lon="12.9625733"><ele>48.0</ele><time>2026-04-04T10:01:22.291Z</time></trkpt><trkpt lat="45.9797433" lon="12.9626217"><ele>47.5</ele><time>2026-04-04T10:01:23.289Z</time></trkpt><trkpt lat="45.9796817" lon="12.962665"><ele>47.0</ele><time>2026-04-04T10:01:24.292Z</time></trkpt><trkpt lat="45.9795917" lon="12.96275"><ele>46.5</ele><time>2026-04-04T10:01:26.29Z</time></trkpt><trkpt lat="45.979585" lon="12.9628733"><ele>46.0</ele><time>2026-04-04T10:01:28.291Z</time></trkpt><trkpt lat="45.9796367" lon="12.9630117"><ele>46.0</ele><time>2026-04-04T10:01:30.291Z</time></trkpt><trkpt lat="45.97965" lon="12.9631417"><ele>46.0</ele><time>2026-04-04T10:01:32.29Z</time></trkpt><trkpt lat="45.979585" lon="12.9632867"><ele>46.0</ele><time>2026-04-04T10:01:34.289Z</time></trkpt><trkpt lat="45.9795033" lon="12.96334"><ele>46.0</ele><time>2026-04-04T10:01:35.291Z</time></trkpt><trkpt lat="45.979405" lon="12.9634033"><ele>46.0</ele><time>2026-04-04T10:01:36.293Z</time></trkpt><trkpt lat="45.9793033" lon="12.9634767"><ele>46.25</ele><time>2026-04-04T10:01:37.288Z</time></trkpt><trkpt lat="45.979185" lon="12.9635517"><ele>46.5</ele><time>2026-04-04T10:01:38.291Z</time></trkpt><trkpt lat="45.9790633" lon="12.963625"><ele>46.75</ele><time>2026-04-04T10:01:39.292Z</time></trkpt><trkpt lat="45.9789383" lon="12.9637"><ele>47.0</ele><time>2026-04-04T10:01:40.29Z</time></trkpt><trkpt lat="45.978815" lon="12.9637767"><ele>47.25</ele><time>2026-04-04T10:01:41.29Z</time></trkpt><trkpt lat="45.9786883" lon="12.9638517"><ele>47.5</ele><time>2026-04-04T10:01:42.292Z</time></trkpt><trkpt lat="45.97856" lon="12.96393"><ele>47.75</ele><time>2026-04-04T10:01:43.292Z</time></trkpt><trkpt lat="45.9784383" lon="12.9640017"><ele>48.0</ele><time>2026-04-04T10:01:44.288Z</time></trkpt><trkpt lat="45.978325" lon="12.9640683"><ele>47.666666666666664</ele><time>2026-04-04T10:01:45.29Z</time></trkpt><trkpt lat="45.9782217" lon="12.9641283"><ele>47.333333333333336</ele><time>2026-04-04T10:01:46.289Z</time></trkpt><trkpt lat="45.9781233" lon="12.9641883"><ele>47.0</ele><time>2026-04-04T10:01:47.292Z</time></trkpt><trkpt lat="45.97804" lon="12.964235"><ele>46.66666666666667</ele><time>2026-04-04T10:01:48.29Z</time></trkpt><trkpt lat="45.9779717" lon="12.9642683"><ele>46.333333333333336</ele><time>2026-04-04T10:01:49.289Z</time></trkpt><trkpt lat="45.9779067" lon="12.9642983"><ele>46.0</ele><time>2026-04-04T10:01:50.293Z</time></trkpt><trkpt lat="45.9778033" lon="12.9643583"><ele>46.0</ele><time>2026-04-04T10:01:52.288Z</time></trkpt><trkpt lat="45.9777583" lon="12.96445"><ele>46.0</ele><time>2026-04-04T10:01:54.295Z</time></trkpt><trkpt lat="45.9777583" lon="12.964615"><ele>46.0</ele><time>2026-04-04T10:01:56.29Z</time></trkpt><trkpt lat="45.9777567" lon="12.964735"><ele>46.0</ele><time>2026-04-04T10:01:57.288Z</time></trkpt><trkpt lat="45.977765" lon="12.9648917"><ele>46.0</ele><time>2026-04-04T10:01:58.287Z</time></trkpt><trkpt lat="45.977785" lon="12.96506"><ele>46.0</ele><time>2026-04-04T10:01:59.288Z</time></trkpt><trkpt lat="45.97781" lon="12.96522"><ele>46.0</ele><time>2026-04-04T10:02:00.292Z</time></trkpt><trkpt lat="45.9778317" lon="12.965365"><ele>46.0</ele><time>2026-04-04T10:02:01.29Z</time></trkpt><trkpt lat="45.9778533" lon="12.96549"><ele>46.0</ele><time>2026-04-04T10:02:02.289Z</time></trkpt><trkpt lat="45.977875" lon="12.9656117"><ele>46.0</ele><time>2026-04-04T10:02:03.289Z</time></trkpt><trkpt lat="45.9779017" lon="12.96574"><ele>46.0</ele><time>2026-04-04T10:02:04.287Z</time></trkpt><trkpt lat="45.97793" lon="12.9658533"><ele>46.0</ele><time>2026-04-04T10:02:05.29Z</time></trkpt><trkpt lat="45.9779517" lon="12.9659533"><ele>46.0</ele><time>2026-04-04T10:02:06.291Z</time></trkpt><trkpt lat="45.977965" lon="12.9660467"><ele>46.0</ele><time>2026-04-04T10:02:07.29Z</time></trkpt><trkpt lat="45.9779533" lon="12.9662083"><ele>46.0</ele><time>2026-04-04T10:02:09.291Z</time></trkpt><trkpt lat="45.9778633" lon="12.9663467"><ele>46.0</ele><time>2026-04-04T10:02:11.289Z</time></trkpt><trkpt lat="45.977785" lon="12.9664033"><ele>46.0</ele><time>2026-04-04T10:02:12.289Z</time></trkpt><trkpt lat="45.97771" lon="12.9664483"><ele>46.0</ele><time>2026-04-04T10:02:13.287Z</time></trkpt><trkpt lat="45.97765" lon="12.9664833"><ele>46.0</ele><time>2026-04-04T10:02:14.291Z</time></trkpt><trkpt lat="45.97761" lon="12.9665717"><ele>46.0</ele><time>2026-04-04T10:02:17.29Z</time></trkpt><trkpt lat="45.9776567" lon="12.9666967"><ele>46.0</ele><time>2026-04-04T10:02:19.288Z</time></trkpt><trkpt lat="45.977695" lon="12.96681"><ele>46.0</ele><time>2026-04-04T10:02:20.289Z</time></trkpt><trkpt lat="45.9777383" lon="12.9669433"><ele>46.0</ele><time>2026-04-04T10:02:21.289Z</time></trkpt><trkpt lat="45.9777833" lon="12.967075"><ele>46.0</ele><time>2026-04-04T10:02:22.287Z</time></trkpt><trkpt lat="45.977825" lon="12.9671867"><ele>46.0</ele><time>2026-04-04T10:02:23.285Z</time></trkpt><trkpt lat="45.9778617" lon="12.9673017"><ele>46.0</ele><time>2026-04-04T10:02:24.289Z</time></trkpt><trkpt lat="45.9778983" lon="12.9674267"><ele>45.833333333333336</ele><time>2026-04-04T10:02:25.291Z</time></trkpt><trkpt lat="45.9779333" lon="12.9675517"><ele>45.66666666666667</ele><time>2026-04-04T10:02:26.289Z</time></trkpt><trkpt lat="45.9779567" lon="12.96767"><ele>45.5</ele><time>2026-04-04T10:02:27.287Z</time></trkpt><trkpt lat="45.977965" lon="12.9677783"><ele>45.333333333333336</ele><time>2026-04-04T10:02:28.285Z</time></trkpt><trkpt lat="45.97796" lon="12.96788"><ele>45.166666666666664</ele><time>2026-04-04T10:02:29.288Z</time></trkpt><trkpt lat="45.9779417" lon="12.9679667"><ele>45.0</ele><time>2026-04-04T10:02:30.289Z</time></trkpt><trkpt lat="45.9778717" lon="12.9680683"><ele>45.0</ele><time>2026-04-04T10:02:32.292Z</time></trkpt><trkpt lat="45.9778083" lon="12.9680917"><ele>45.0</ele><time>2026-04-04T10:02:33.288Z</time></trkpt><trkpt lat="45.977725" lon="12.9681083"><ele>45.0</ele><time>2026-04-04T10:02:34.289Z</time></trkpt><trkpt lat="45.9776233" lon="12.9681367"><ele>45.0</ele><time>2026-04-04T10:02:35.287Z</time></trkpt><trkpt lat="45.97751" lon="12.9681717"><ele>45.0</ele><time>2026-04-04T10:02:36.289Z</time></trkpt><trkpt lat="45.9774" lon="12.9682"><ele>45.0</ele><time>2026-04-04T10:02:37.288Z</time></trkpt><trkpt lat="45.9773033" lon="12.968215"><ele>45.0</ele><time>2026-04-04T10:02:38.291Z</time></trkpt><trkpt lat="45.9772117" lon="12.9682133"><ele>45.0</ele><time>2026-04-04T10:02:39.286Z</time></trkpt><trkpt lat="45.9771217" lon="12.9681983"><ele>45.0</ele><time>2026-04-04T10:02:40.288Z</time></trkpt><trkpt lat="45.977035" lon="12.9681833"><ele>45.0</ele><time>2026-04-04T10:02:41.287Z</time></trkpt><trkpt lat="45.9769517" lon="12.9681683"><ele>45.0</ele><time>2026-04-04T10:02:42.29Z</time></trkpt><trkpt lat="45.976875" lon="12.96815"><ele>45.0</ele><time>2026-04-04T10:02:43.29Z</time></trkpt><trkpt lat="45.9768033" lon="12.968125"><ele>45.0</ele><time>2026-04-04T10:02:44.289Z</time></trkpt><trkpt lat="45.976745" lon="12.96809"><ele>45.0</ele><time>2026-04-04T10:02:45.286Z</time></trkpt><trkpt lat="45.9766533" lon="12.9680033"><ele>45.0</ele><time>2026-04-04T10:02:47.293Z</time></trkpt><trkpt lat="45.97654" lon="12.967955"><ele>45.0</ele><time>2026-04-04T10:02:49.291Z</time></trkpt><trkpt lat="45.976465" lon="12.9679783"><ele>45.0</ele><time>2026-04-04T10:02:50.29Z</time></trkpt><trkpt lat="45.9763683" lon="12.9680233"><ele>45.0</ele><time>2026-04-04T10:02:51.288Z</time></trkpt><trkpt lat="45.9762583" lon="12.9680833"><ele>45.0</ele><time>2026-04-04T10:02:52.293Z</time></trkpt><trkpt lat="45.9761433" lon="12.9681433"><ele>45.0</ele><time>2026-04-04T10:02:53.287Z</time></trkpt><trkpt lat="45.9760233" lon="12.9682017"><ele>45.0</ele><time>2026-04-04T10:02:54.29Z</time></trkpt><trkpt lat="45.97591" lon="12.9682567"><ele>45.0</ele><time>2026-04-04T10:02:55.284Z</time></trkpt><trkpt lat="45.9758117" lon="12.9683033"><ele>45.0</ele><time>2026-04-04T10:02:56.287Z</time></trkpt><trkpt lat="45.975725" lon="12.96835"><ele>45.0</ele><time>2026-04-04T10:02:57.294Z</time></trkpt><trkpt lat="45.9756467" lon="12.9683867"><ele>45.0</ele><time>2026-04-04T10:02:58.29Z</time></trkpt><trkpt lat="45.975575" lon="12.9684233"><ele>44.833333333333336</ele><time>2026-04-04T10:02:59.287Z</time></trkpt><trkpt lat="45.9755117" lon="12.968455"><ele>44.666666666666664</ele><time>2026-04-04T10:03:00.293Z</time></trkpt><trkpt lat="45.9754217" lon="12.9684983"><ele>44.5</ele><time>2026-04-04T10:03:02.289Z</time></trkpt><trkpt lat="45.975365" lon="12.968575"><ele>44.33333333333333</ele><time>2026-04-04T10:03:06.29Z</time></trkpt><trkpt lat="45.975395" lon="12.9687267"><ele>44.166666666666664</ele><time>2026-04-04T10:03:08.288Z</time></trkpt><trkpt lat="45.97543" lon="12.9688533"><ele>44.0</ele><time>2026-04-04T10:03:09.291Z</time></trkpt><trkpt lat="45.975475" lon="12.96901"><ele>44.0</ele><time>2026-04-04T10:03:10.285Z</time></trkpt><trkpt lat="45.9755183" lon="12.969175"><ele>44.0</ele><time>2026-04-04T10:03:11.29Z</time></trkpt><trkpt lat="45.9755583" lon="12.9693367"><ele>44.0</ele><time>2026-04-04T10:03:12.288Z</time></trkpt><trkpt lat="45.9756017" lon="12.9694883"><ele>44.0</ele><time>2026-04-04T10:03:13.284Z</time></trkpt><trkpt lat="45.9756433" lon="12.96963"><ele>44.166666666666664</ele><time>2026-04-04T10:03:14.29Z</time></trkpt><trkpt lat="45.9756833" lon="12.9697633"><ele>44.33333333333333</ele><time>2026-04-04T10:03:15.287Z</time></trkpt><trkpt lat="45.97571" lon="12.96989"><ele>44.5</ele><time>2026-04-04T10:03:16.287Z</time></trkpt><trkpt lat="45.97574" lon="12.9700083"><ele>44.666666666666664</ele><time>2026-04-04T10:03:17.284Z</time></trkpt><trkpt lat="45.975765" lon="12.9701133"><ele>44.833333333333336</ele><time>2026-04-04T10:03:18.286Z</time></trkpt><trkpt lat="45.9757917" lon="12.9702183"><ele>45.0</ele><time>2026-04-04T10:03:19.285Z</time></trkpt><trkpt lat="45.975815" lon="12.9703233"><ele>45.166666666666664</ele><time>2026-04-04T10:03:20.294Z</time></trkpt><trkpt lat="45.975835" lon="12.97042"><ele>45.333333333333336</ele><time>2026-04-04T10:03:21.288Z</time></trkpt><trkpt lat="45.975835" lon="12.9705733"><ele>45.5</ele><time>2026-04-04T10:03:23.295Z</time></trkpt><trkpt lat="45.9757833" lon="12.970665"><ele>45.66666666666667</ele><time>2026-04-04T10:03:25.289Z</time></trkpt><trkpt lat="45.9757017" lon="12.970675"><ele>45.833333333333336</ele><time>2026-04-04T10:03:26.287Z</time></trkpt><trkpt lat="45.97562" lon="12.9707183"><ele>46.0</ele><time>2026-04-04T10:03:27.291Z</time></trkpt><trkpt lat="45.9755333" lon="12.9707883"><ele>46.199999999999996</ele><time>2026-04-04T10:03:28.287Z</time></trkpt><trkpt lat="45.97544" lon="12.9708617"><ele>46.4</ele><time>2026-04-04T10:03:29.286Z</time></trkpt><trkpt lat="45.9753333" lon="12.97093"><ele>46.6</ele><time>2026-04-04T10:03:30.29Z</time></trkpt><trkpt lat="45.9752283" lon="12.970995"><ele>46.8</ele><time>2026-04-04T10:03:31.293Z</time></trkpt><trkpt lat="45.9751367" lon="12.97106"><ele>47.0</ele><time>2026-04-04T10:03:32.288Z</time></trkpt><trkpt lat="45.9750517" lon="12.9711217"><ele>46.83333333333333</ele><time>2026-04-04T10:03:33.287Z</time></trkpt><trkpt lat="45.9749683" lon="12.9711867"><ele>46.666666666666664</ele><time>2026-04-04T10:03:34.286Z</time></trkpt><trkpt lat="45.9748867" lon="12.97125"><ele>46.5</ele><time>2026-04-04T10:03:35.286Z</time></trkpt><trkpt lat="45.9748217" lon="12.97131"><ele>46.333333333333336</ele><time>2026-04-04T10:03:36.286Z</time></trkpt><trkpt lat="45.9747733" lon="12.9713833"><ele>46.16666666666667</ele><time>2026-04-04T10:03:37.285Z</time></trkpt><trkpt lat="45.9747333" lon="12.9714883"><ele>46.0</ele><time>2026-04-04T10:03:38.291Z</time></trkpt><trkpt lat="45.9747217" lon="12.9716317"><ele>45.833333333333336</ele><time>2026-04-04T10:03:39.289Z</time></trkpt><trkpt lat="45.9747267" lon="12.971785"><ele>45.66666666666667</ele><time>2026-04-04T10:03:40.287Z</time></trkpt><trkpt lat="45.97473" lon="12.9719233"><ele>45.5</ele><time>2026-04-04T10:03:41.289Z</time></trkpt><trkpt lat="45.97473" lon="12.9720467"><ele>45.333333333333336</ele><time>2026-04-04T10:03:42.286Z</time></trkpt><trkpt lat="45.9747317" lon="12.9721617"><ele>45.166666666666664</ele><time>2026-04-04T10:03:43.286Z</time></trkpt><trkpt lat="45.9747367" lon="12.9722683"><ele>45.0</ele><time>2026-04-04T10:03:44.288Z</time></trkpt><trkpt lat="45.974745" lon="12.97238"><ele>45.0</ele><time>2026-04-04T10:03:45.287Z</time></trkpt><trkpt lat="45.9747483" lon="12.9724833"><ele>45.0</ele><time>2026-04-04T10:03:46.289Z</time></trkpt><trkpt lat="45.9747467" lon="12.9726417"><ele>45.0</ele><time>2026-04-04T10:03:48.289Z</time></trkpt><trkpt lat="45.9747633" lon="12.9727483"><ele>45.0</ele><time>2026-04-04T10:03:50.288Z</time></trkpt><trkpt lat="45.9747433" lon="12.9728567"><ele>45.0</ele><time>2026-04-04T10:03:55.292Z</time></trkpt><trkpt lat="45.9746817" lon="12.972905"><ele>45.0</ele><time>2026-04-04T10:03:56.289Z</time></trkpt><trkpt lat="45.9745983" lon="12.9729617"><ele>45.0</ele><time>2026-04-04T10:03:57.288Z</time></trkpt><trkpt lat="45.9745017" lon="12.9730283"><ele>45.0</ele><time>2026-04-04T10:03:58.289Z</time></trkpt><trkpt lat="45.9743883" lon="12.9730967"><ele>45.0</ele><time>2026-04-04T10:03:59.289Z</time></trkpt><trkpt lat="45.9742617" lon="12.9731767"><ele>45.0</ele><time>2026-04-04T10:04:00.289Z</time></trkpt><trkpt lat="45.9741267" lon="12.9732617"><ele>45.0</ele><time>2026-04-04T10:04:01.292Z</time></trkpt><trkpt lat="45.9739917" lon="12.9733367"><ele>45.0</ele><time>2026-04-04T10:04:02.288Z</time></trkpt><trkpt lat="45.97385" lon="12.973415"><ele>45.0</ele><time>2026-04-04T10:04:03.289Z</time></trkpt><trkpt lat="45.9737017" lon="12.9735033"><ele>44.666666666666664</ele><time>2026-04-04T10:04:04.292Z</time></trkpt><trkpt lat="45.973545" lon="12.973595"><ele>44.33333333333333</ele><time>2026-04-04T10:04:05.294Z</time></trkpt><trkpt lat="45.97338" lon="12.9736883"><ele>44.0</ele><time>2026-04-04T10:04:06.293Z</time></trkpt><trkpt lat="45.973215" lon="12.97378"><ele>44.0</ele><time>2026-04-04T10:04:07.289Z</time></trkpt><trkpt lat="45.9730383" lon="12.9738733"><ele>44.0</ele><time>2026-04-04T10:04:08.288Z</time></trkpt><trkpt lat="45.9728567" lon="12.973965"><ele>44.0</ele><time>2026-04-04T10:04:09.289Z</time></trkpt><trkpt lat="45.9726717" lon="12.9740617"><ele>44.0</ele><time>2026-04-04T10:04:10.287Z</time></trkpt><trkpt lat="45.9724883" lon="12.9741617"><ele>44.0</ele><time>2026-04-04T10:04:11.29Z</time></trkpt><trkpt lat="45.9723" lon="12.9742667"><ele>44.0</ele><time>2026-04-04T10:04:12.291Z</time></trkpt><trkpt lat="45.9721167" lon="12.9743667"><ele>44.0</ele><time>2026-04-04T10:04:13.291Z</time></trkpt><trkpt lat="45.9719317" lon="12.974465"><ele>44.0</ele><time>2026-04-04T10:04:14.293Z</time></trkpt><trkpt lat="45.9717417" lon="12.97457"><ele>44.0</ele><time>2026-04-04T10:04:15.288Z</time></trkpt><trkpt lat="45.9715517" lon="12.9746783"><ele>43.33333333333333</ele><time>2026-04-04T10:04:16.286Z</time></trkpt><trkpt lat="45.9713667" lon="12.97478"><ele>42.666666666666664</ele><time>2026-04-04T10:04:17.291Z</time></trkpt><trkpt lat="45.97119" lon="12.9748717"><ele>42.0</ele><time>2026-04-04T10:04:18.291Z</time></trkpt><trkpt lat="45.97102" lon="12.9749633"><ele>42.333333333333336</ele><time>2026-04-04T10:04:19.291Z</time></trkpt><trkpt lat="45.970865" lon="12.975045"><ele>42.66666666666667</ele><time>2026-04-04T10:04:20.293Z</time></trkpt><trkpt lat="45.9707167" lon="12.975125"><ele>43.0</ele><time>2026-04-04T10:04:21.291Z</time></trkpt><trkpt lat="45.97057" lon="12.975205"><ele>43.0</ele><time>2026-04-04T10:04:22.29Z</time></trkpt><trkpt lat="45.97042" lon="12.9752867"><ele>43.0</ele><time>2026-04-04T10:04:23.287Z</time></trkpt><trkpt lat="45.9702767" lon="12.9753667"><ele>43.0</ele><time>2026-04-04T10:04:24.288Z</time></trkpt><trkpt lat="45.9701417" lon="12.97544"><ele>43.25</ele><time>2026-04-04T10:04:25.289Z</time></trkpt><trkpt lat="45.970015" lon="12.97551"><ele>43.5</ele><time>2026-04-04T10:04:26.286Z</time></trkpt><trkpt lat="45.9699017" lon="12.9755717"><ele>43.75</ele><time>2026-04-04T10:04:27.288Z</time></trkpt><trkpt lat="45.9697933" lon="12.975635"><ele>44.0</ele><time>2026-04-04T10:04:28.29Z</time></trkpt><trkpt lat="45.9696917" lon="12.97569"><ele>44.0</ele><time>2026-04-04T10:04:29.286Z</time></trkpt><trkpt lat="45.9695967" lon="12.9757417"><ele>44.0</ele><time>2026-04-04T10:04:30.291Z</time></trkpt><trkpt lat="45.9695083" lon="12.9757817"><ele>44.0</ele><time>2026-04-04T10:04:31.286Z</time></trkpt><trkpt lat="45.9694167" lon="12.9758267"><ele>44.0</ele><time>2026-04-04T10:04:32.287Z</time></trkpt><trkpt lat="45.96933" lon="12.9758767"><ele>44.0</ele><time>2026-04-04T10:04:33.29Z</time></trkpt><trkpt lat="45.9692517" lon="12.9759217"><ele>43.800000000000004</ele><time>2026-04-04T10:04:34.29Z</time></trkpt><trkpt lat="45.9691717" lon="12.9759467"><ele>43.6</ele><time>2026-04-04T10:04:35.288Z</time></trkpt><trkpt lat="45.9690817" lon="12.9759433"><ele>43.4</ele><time>2026-04-04T10:04:36.291Z</time></trkpt><trkpt lat="45.9689867" lon="12.9759533"><ele>43.2</ele><time>2026-04-04T10:04:37.288Z</time></trkpt><trkpt lat="45.9688967" lon="12.975995"><ele>43.0</ele><time>2026-04-04T10:04:38.29Z</time></trkpt><trkpt lat="45.968815" lon="12.9760783"><ele>43.0</ele><time>2026-04-04T10:04:39.287Z</time></trkpt><trkpt lat="45.9687267" lon="12.9761867"><ele>43.0</ele><time>2026-04-04T10:04:40.289Z</time></trkpt><trkpt lat="45.96862" lon="12.9762867"><ele>43.0</ele><time>2026-04-04T10:04:41.287Z</time></trkpt><trkpt lat="45.968485" lon="12.9763567"><ele>43.0</ele><time>2026-04-04T10:04:42.287Z</time></trkpt><trkpt lat="45.9683433" lon="12.9764267"><ele>43.333333333333336</ele><time>2026-04-04T10:04:43.292Z</time></trkpt><trkpt lat="45.9681933" lon="12.97651"><ele>43.666666666666664</ele><time>2026-04-04T10:04:44.291Z</time></trkpt><trkpt lat="45.9680433" lon="12.976595"><ele>44.0</ele><time>2026-04-04T10:04:45.287Z</time></trkpt><trkpt lat="45.9678967" lon="12.9766717"><ele>43.75</ele><time>2026-04-04T10:04:46.293Z</time></trkpt><trkpt lat="45.9677583" lon="12.9767433"><ele>43.5</ele><time>2026-04-04T10:04:47.288Z</time></trkpt><trkpt lat="45.9676267" lon="12.976815"><ele>43.25</ele><time>2026-04-04T10:04:48.289Z</time></trkpt><trkpt lat="45.9675017" lon="12.9768867"><ele>43.0</ele><time>2026-04-04T10:04:49.288Z</time></trkpt><trkpt lat="45.9673867" lon="12.9769533"><ele>42.8</ele><time>2026-04-04T10:04:50.292Z</time></trkpt><trkpt lat="45.9672783" lon="12.9770083"><ele>42.599999999999994</ele><time>2026-04-04T10:04:51.287Z</time></trkpt><trkpt lat="45.9671767" lon="12.977055"><ele>42.400000000000006</ele><time>2026-04-04T10:04:52.288Z</time></trkpt><trkpt lat="45.9670783" lon="12.977105"><ele>42.2</ele><time>2026-04-04T10:04:53.288Z</time></trkpt><trkpt lat="45.9669767" lon="12.97716"><ele>42.0</ele><time>2026-04-04T10:04:54.298Z</time></trkpt><trkpt lat="45.9668767" lon="12.9772217"><ele>42.0</ele><time>2026-04-04T10:04:55.291Z</time></trkpt><trkpt lat="45.96677" lon="12.977285"><ele>42.0</ele><time>2026-04-04T10:04:56.294Z</time></trkpt><trkpt lat="45.9666583" lon="12.977345"><ele>42.0</ele><time>2026-04-04T10:04:57.291Z</time></trkpt><trkpt lat="45.9665383" lon="12.9774083"><ele>42.0</ele><time>2026-04-04T10:04:58.29Z</time></trkpt><trkpt lat="45.9664133" lon="12.9774767"><ele>42.0</ele><time>2026-04-04T10:04:59.29Z</time></trkpt><trkpt lat="45.9662883" lon="12.9775467"><ele>42.0</ele><time>2026-04-04T10:05:00.289Z</time></trkpt><trkpt lat="45.9661683" lon="12.9776133"><ele>42.0</ele><time>2026-04-04T10:05:01.291Z</time></trkpt><trkpt lat="45.96604" lon="12.9776883"><ele>42.0</ele><time>2026-04-04T10:05:02.289Z</time></trkpt><trkpt lat="45.9659183" lon="12.9777517"><ele>41.75</ele><time>2026-04-04T10:05:03.29Z</time></trkpt><trkpt lat="45.9658" lon="12.9778217"><ele>41.5</ele><time>2026-04-04T10:05:04.287Z</time></trkpt><trkpt lat="45.965675" lon="12.9778883"><ele>41.25</ele><time>2026-04-04T10:05:05.287Z</time></trkpt><trkpt lat="45.9655567" lon="12.9779567"><ele>41.0</ele><time>2026-04-04T10:05:06.286Z</time></trkpt><trkpt lat="45.9654467" lon="12.97802"><ele>41.0</ele><time>2026-04-04T10:05:07.289Z</time></trkpt><trkpt lat="45.9653367" lon="12.9780833"><ele>41.0</ele><time>2026-04-04T10:05:08.288Z</time></trkpt><trkpt lat="45.9652233" lon="12.9781433"><ele>41.0</ele><time>2026-04-04T10:05:09.287Z</time></trkpt><trkpt lat="45.9651067" lon="12.978205"><ele>41.0</ele><time>2026-04-04T10:05:10.293Z</time></trkpt><trkpt lat="45.96499" lon="12.978265"><ele>41.0</ele><time>2026-04-04T10:05:11.289Z</time></trkpt><trkpt lat="45.9648767" lon="12.9783283"><ele>41.0</ele><time>2026-04-04T10:05:12.287Z</time></trkpt><trkpt lat="45.9647617" lon="12.9783917"><ele>41.0</ele><time>2026-04-04T10:05:13.286Z</time></trkpt><trkpt lat="45.9646433" lon="12.9784633"><ele>41.0</ele><time>2026-04-04T10:05:14.289Z</time></trkpt><trkpt lat="45.9645217" lon="12.9785283"><ele>41.0</ele><time>2026-04-04T10:05:15.29Z</time></trkpt><trkpt lat="45.9644" lon="12.978595"><ele>41.0</ele><time>2026-04-04T10:05:16.286Z</time></trkpt><trkpt lat="45.96428" lon="12.9786633"><ele>41.0</ele><time>2026-04-04T10:05:17.29Z</time></trkpt><trkpt lat="45.9641683" lon="12.9787217"><ele>41.0</ele><time>2026-04-04T10:05:18.286Z</time></trkpt><trkpt lat="45.9640583" lon="12.9787767"><ele>41.199999999999996</ele><time>2026-04-04T10:05:19.289Z</time></trkpt><trkpt lat="45.9639567" lon="12.9788317"><ele>41.4</ele><time>2026-04-04T10:05:20.289Z</time></trkpt><trkpt lat="45.963855" lon="12.9788867"><ele>41.6</ele><time>2026-04-04T10:05:21.289Z</time></trkpt><trkpt lat="45.9637617" lon="12.9789383"><ele>41.8</ele><time>2026-04-04T10:05:22.289Z</time></trkpt><trkpt lat="45.963675" lon="12.9789883"><ele>42.0</ele><time>2026-04-04T10:05:23.291Z</time></trkpt><trkpt lat="45.9636" lon="12.979025"><ele>42.0</ele><time>2026-04-04T10:05:24.287Z</time></trkpt><trkpt lat="45.96354" lon="12.979055"><ele>42.0</ele><time>2026-04-04T10:05:25.289Z</time></trkpt><trkpt lat="45.96344" lon="12.9791083"><ele>42.0</ele><time>2026-04-04T10:05:27.288Z</time></trkpt><trkpt lat="45.96335" lon="12.9791583"><ele>42.0</ele><time>2026-04-04T10:05:30.29Z</time></trkpt><trkpt lat="45.9632767" lon="12.97919"><ele>42.0</ele><time>2026-04-04T10:05:32.289Z</time></trkpt><trkpt lat="45.9631817" lon="12.979235"><ele>42.0</ele><time>2026-04-04T10:05:34.289Z</time></trkpt><trkpt lat="45.9631083" lon="12.9793283"><ele>42.166666666666664</ele><time>2026-04-04T10:05:36.286Z</time></trkpt><trkpt lat="45.9631183" lon="12.97942"><ele>42.333333333333336</ele><time>2026-04-04T10:05:39.288Z</time></trkpt><trkpt lat="45.96316" lon="12.97953"><ele>42.5</ele><time>2026-04-04T10:05:41.287Z</time></trkpt><trkpt lat="45.9632" lon="12.9796183"><ele>42.66666666666667</ele><time>2026-04-04T10:05:42.288Z</time></trkpt><trkpt lat="45.963255" lon="12.9797317"><ele>42.833333333333336</ele><time>2026-04-04T10:05:43.295Z</time></trkpt><trkpt lat="45.9633083" lon="12.979855"><ele>43.0</ele><time>2026-04-04T10:05:44.289Z</time></trkpt><trkpt lat="45.9633517" lon="12.9799933"><ele>43.0</ele><time>2026-04-04T10:05:45.288Z</time></trkpt><trkpt lat="45.9633883" lon="12.9801367"><ele>43.0</ele><time>2026-04-04T10:05:46.295Z</time></trkpt><trkpt lat="45.9634067" lon="12.98028"><ele>43.0</ele><time>2026-04-04T10:05:47.29Z</time></trkpt><trkpt lat="45.96342" lon="12.9804267"><ele>43.0</ele><time>2026-04-04T10:05:48.29Z</time></trkpt><trkpt lat="45.963435" lon="12.9805767"><ele>43.0</ele><time>2026-04-04T10:05:49.287Z</time></trkpt><trkpt lat="45.9634517" lon="12.9807283"><ele>43.2</ele><time>2026-04-04T10:05:50.29Z</time></trkpt><trkpt lat="45.9634667" lon="12.9808733"><ele>43.4</ele><time>2026-04-04T10:05:51.293Z</time></trkpt><trkpt lat="45.9634783" lon="12.9810083"><ele>43.6</ele><time>2026-04-04T10:05:52.287Z</time></trkpt><trkpt lat="45.96348" lon="12.9811417"><ele>43.800000000000004</ele><time>2026-04-04T10:05:53.289Z</time></trkpt><trkpt lat="45.9634767" lon="12.9812817"><ele>44.0</ele><time>2026-04-04T10:05:54.289Z</time></trkpt><trkpt lat="45.9634533" lon="12.9814217"><ele>44.0</ele><time>2026-04-04T10:05:55.287Z</time></trkpt><trkpt lat="45.9634233" lon="12.9815517"><ele>44.0</ele><time>2026-04-04T10:05:56.293Z</time></trkpt><trkpt lat="45.9634033" lon="12.981685"><ele>44.0</ele><time>2026-04-04T10:05:57.289Z</time></trkpt><trkpt lat="45.9633767" lon="12.98183"><ele>44.0</ele><time>2026-04-04T10:05:58.29Z</time></trkpt><trkpt lat="45.9633533" lon="12.981985"><ele>44.0</ele><time>2026-04-04T10:05:59.287Z</time></trkpt><trkpt lat="45.96333" lon="12.9821217"><ele>43.400000000000006</ele><time>2026-04-04T10:06:00.293Z</time></trkpt><trkpt lat="45.9633117" lon="12.9822567"><ele>42.8</ele><time>2026-04-04T10:06:01.29Z</time></trkpt><trkpt lat="45.9632917" lon="12.9824133"><ele>42.2</ele><time>2026-04-04T10:06:02.288Z</time></trkpt><trkpt lat="45.9632683" lon="12.9825783"><ele>41.599999999999994</ele><time>2026-04-04T10:06:03.293Z</time></trkpt><trkpt lat="45.9632533" lon="12.9827367"><ele>41.0</ele><time>2026-04-04T10:06:04.289Z</time></trkpt><trkpt lat="45.9632433" lon="12.9828867"><ele>41.0</ele><time>2026-04-04T10:06:05.287Z</time></trkpt><trkpt lat="45.9632367" lon="12.983025"><ele>41.0</ele><time>2026-04-04T10:06:06.289Z</time></trkpt><trkpt lat="45.9632317" lon="12.9831667"><ele>41.0</ele><time>2026-04-04T10:06:07.289Z</time></trkpt><trkpt lat="45.963225" lon="12.9833017"><ele>41.0</ele><time>2026-04-04T10:06:08.293Z</time></trkpt><trkpt lat="45.9632233" lon="12.9834267"><ele>41.0</ele><time>2026-04-04T10:06:09.294Z</time></trkpt><trkpt lat="45.9632133" lon="12.98353"><ele>41.0</ele><time>2026-04-04T10:06:10.289Z</time></trkpt><trkpt lat="45.9632" lon="12.98362"><ele>41.0</ele><time>2026-04-04T10:06:11.291Z</time></trkpt><trkpt lat="45.9631383" lon="12.98372"><ele>41.0</ele><time>2026-04-04T10:06:13.291Z</time></trkpt><trkpt lat="45.9630167" lon="12.9837817"><ele>41.0</ele><time>2026-04-04T10:06:15.292Z</time></trkpt><trkpt lat="45.9629267" lon="12.983805"><ele>41.0</ele><time>2026-04-04T10:06:16.29Z</time></trkpt><trkpt lat="45.9628117" lon="12.983815"><ele>41.0</ele><time>2026-04-04T10:06:17.292Z</time></trkpt><trkpt lat="45.9626767" lon="12.983825"><ele>41.0</ele><time>2026-04-04T10:06:18.288Z</time></trkpt><trkpt lat="45.9625417" lon="12.98384"><ele>41.0</ele><time>2026-04-04T10:06:19.287Z</time></trkpt><trkpt lat="45.9624033" lon="12.9838683"><ele>41.0</ele><time>2026-04-04T10:06:20.289Z</time></trkpt><trkpt lat="45.9622733" lon="12.9839017"><ele>41.0</ele><time>2026-04-04T10:06:21.289Z</time></trkpt><trkpt lat="45.962155" lon="12.983925"><ele>41.0</ele><time>2026-04-04T10:06:22.29Z</time></trkpt><trkpt lat="45.9620433" lon="12.9839467"><ele>41.0</ele><time>2026-04-04T10:06:23.29Z</time></trkpt><trkpt lat="45.961935" lon="12.9839683"><ele>41.0</ele><time>2026-04-04T10:06:24.286Z</time></trkpt><trkpt lat="45.9618283" lon="12.9839933"><ele>41.0</ele><time>2026-04-04T10:06:25.289Z</time></trkpt><trkpt lat="45.96173" lon="12.9840167"><ele>41.0</ele><time>2026-04-04T10:06:26.289Z</time></trkpt><trkpt lat="45.961635" lon="12.9840417"><ele>41.199999999999996</ele><time>2026-04-04T10:06:27.29Z</time></trkpt><trkpt lat="45.9615483" lon="12.9840633"><ele>41.4</ele><time>2026-04-04T10:06:28.292Z</time></trkpt><trkpt lat="45.9614783" lon="12.9840733"><ele>41.6</ele><time>2026-04-04T10:06:29.287Z</time></trkpt><trkpt lat="45.9613817" lon="12.98409"><ele>41.8</ele><time>2026-04-04T10:06:31.288Z</time></trkpt><trkpt lat="45.9612817" lon="12.9841117"><ele>42.0</ele><time>2026-04-04T10:06:33.294Z</time></trkpt><trkpt lat="45.9611617" lon="12.984135"><ele>42.0</ele><time>2026-04-04T10:06:35.287Z</time></trkpt><trkpt lat="45.9610517" lon="12.98415"><ele>42.0</ele><time>2026-04-04T10:06:37.289Z</time></trkpt><trkpt lat="45.9609583" lon="12.9841783"><ele>42.0</ele><time>2026-04-04T10:06:39.293Z</time></trkpt><trkpt lat="45.96087" lon="12.9842083"><ele>42.0</ele><time>2026-04-04T10:06:41.288Z</time></trkpt><trkpt lat="45.9607883" lon="12.984225"><ele>42.0</ele><time>2026-04-04T10:06:43.288Z</time></trkpt><trkpt lat="45.96071" lon="12.984225"><ele>41.6</ele><time>2026-04-04T10:06:45.292Z</time></trkpt><trkpt lat="45.9606033" lon="12.98416"><ele>41.2</ele><time>2026-04-04T10:06:58.288Z</time></trkpt><trkpt lat="45.9605733" lon="12.9840417"><ele>40.8</ele><time>2026-04-04T10:07:00.291Z</time></trkpt><trkpt lat="45.9605417" lon="12.9839033"><ele>40.4</ele><time>2026-04-04T10:07:02.291Z</time></trkpt><trkpt lat="45.9605133" lon="12.9838"><ele>40.0</ele><time>2026-04-04T10:07:04.288Z</time></trkpt><trkpt lat="45.9604583" lon="12.983695"><ele>40.0</ele><time>2026-04-04T10:07:07.289Z</time></trkpt><trkpt lat="45.9603733" lon="12.983765"><ele>40.0</ele><time>2026-04-04T10:07:10.288Z</time></trkpt><trkpt lat="45.9603333" lon="12.9839017"><ele>40.0</ele><time>2026-04-04T10:07:12.291Z</time></trkpt><trkpt lat="45.9603133" lon="12.9839917"><ele>40.0</ele><time>2026-04-04T10:07:13.287Z</time></trkpt><trkpt lat="45.9603017" lon="12.98409"><ele>40.0</ele><time>2026-04-04T10:07:14.292Z</time></trkpt><trkpt lat="45.9602933" lon="12.984185"><ele>40.0</ele><time>2026-04-04T10:07:15.293Z</time></trkpt><trkpt lat="45.96028" lon="12.984285"><ele>40.2</ele><time>2026-04-04T10:07:16.29Z</time></trkpt><trkpt lat="45.960265" lon="12.98439"><ele>40.4</ele><time>2026-04-04T10:07:17.288Z</time></trkpt><trkpt lat="45.9602467" lon="12.9845083"><ele>40.599999999999994</ele><time>2026-04-04T10:07:18.298Z</time></trkpt><trkpt lat="45.9602217" lon="12.9846433"><ele>40.8</ele><time>2026-04-04T10:07:19.293Z</time></trkpt><trkpt lat="45.9601983" lon="12.9847833"><ele>41.0</ele><time>2026-04-04T10:07:20.288Z</time></trkpt><trkpt lat="45.9601767" lon="12.9849183"><ele>41.0</ele><time>2026-04-04T10:07:21.287Z</time></trkpt><trkpt lat="45.960155" lon="12.9850417"><ele>41.0</ele><time>2026-04-04T10:07:22.294Z</time></trkpt><trkpt lat="45.9601367" lon="12.985155"><ele>41.0</ele><time>2026-04-04T10:07:23.291Z</time></trkpt><trkpt lat="45.960115" lon="12.98528"><ele>41.0</ele><time>2026-04-04T10:07:24.29Z</time></trkpt><trkpt lat="45.96009" lon="12.98543"><ele>41.0</ele><time>2026-04-04T10:07:25.293Z</time></trkpt><trkpt lat="45.9600667" lon="12.9855917"><ele>41.0</ele><time>2026-04-04T10:07:26.289Z</time></trkpt><trkpt lat="45.9600383" lon="12.985745"><ele>41.0</ele><time>2026-04-04T10:07:27.288Z</time></trkpt><trkpt lat="45.960015" lon="12.9858883"><ele>41.0</ele><time>2026-04-04T10:07:28.294Z</time></trkpt><trkpt lat="45.9599967" lon="12.98604"><ele>41.0</ele><time>2026-04-04T10:07:29.292Z</time></trkpt><trkpt lat="45.9599767" lon="12.9862183"><ele>41.0</ele><time>2026-04-04T10:07:30.289Z</time></trkpt><trkpt lat="45.9599417" lon="12.98641"><ele>40.33333333333333</ele><time>2026-04-04T10:07:31.289Z</time></trkpt><trkpt lat="45.9598983" lon="12.9866117"><ele>39.666666666666664</ele><time>2026-04-04T10:07:32.288Z</time></trkpt><trkpt lat="45.9598567" lon="12.9868283"><ele>39.0</ele><time>2026-04-04T10:07:33.293Z</time></trkpt><trkpt lat="45.959825" lon="12.98704"><ele>39.0</ele><time>2026-04-04T10:07:34.289Z</time></trkpt><trkpt lat="45.9597983" lon="12.987235"><ele>39.0</ele><time>2026-04-04T10:07:35.29Z</time></trkpt><trkpt lat="45.95977" lon="12.9874117"><ele>39.0</ele><time>2026-04-04T10:07:36.286Z</time></trkpt><trkpt lat="45.9597433" lon="12.9875733"><ele>39.0</ele><time>2026-04-04T10:07:37.299Z</time></trkpt><trkpt lat="45.9597217" lon="12.9877117"><ele>38.833333333333336</ele><time>2026-04-04T10:07:38.291Z</time></trkpt><trkpt lat="45.9597" lon="12.987835"><ele>38.666666666666664</ele><time>2026-04-04T10:07:39.288Z</time></trkpt><trkpt lat="45.9596817" lon="12.98794"><ele>38.5</ele><time>2026-04-04T10:07:40.291Z</time></trkpt><trkpt lat="45.9596667" lon="12.9880283"><ele>38.33333333333333</ele><time>2026-04-04T10:07:41.292Z</time></trkpt><trkpt lat="45.9596367" lon="12.9881567"><ele>38.166666666666664</ele><time>2026-04-04T10:07:43.293Z</time></trkpt><trkpt lat="45.959585" lon="12.9882217"><ele>38.0</ele><time>2026-04-04T10:07:45.296Z</time></trkpt><trkpt lat="45.95949" lon="12.9882117"><ele>38.0</ele><time>2026-04-04T10:07:47.289Z</time></trkpt><trkpt lat="45.9594133" lon="12.9881817"><ele>38.0</ele><time>2026-04-04T10:07:48.287Z</time></trkpt><trkpt lat="45.9593233" lon="12.9881517"><ele>38.0</ele><time>2026-04-04T10:07:49.288Z</time></trkpt><trkpt lat="45.959235" lon="12.9881233"><ele>38.0</ele><time>2026-04-04T10:07:50.292Z</time></trkpt><trkpt lat="45.9591583" lon="12.9880967"><ele>38.0</ele><time>2026-04-04T10:07:51.292Z</time></trkpt><trkpt lat="45.95909" lon="12.9880733"><ele>38.0</ele><time>2026-04-04T10:07:52.29Z</time></trkpt><trkpt lat="45.958975" lon="12.9880367"><ele>37.6</ele><time>2026-04-04T10:07:54.29Z</time></trkpt><trkpt lat="45.9588917" lon="12.988015"><ele>37.199999999999996</ele><time>2026-04-04T10:07:56.288Z</time></trkpt><trkpt lat="45.9588233" lon="12.9879867"><ele>36.8</ele><time>2026-04-04T10:07:59.289Z</time></trkpt><trkpt lat="45.9587333" lon="12.9879967"><ele>36.4</ele><time>2026-04-04T10:08:02.291Z</time></trkpt><trkpt lat="45.9586283" lon="12.9881733"><ele>36.0</ele><time>2026-04-04T10:08:04.288Z</time></trkpt><trkpt lat="45.9585617" lon="12.9883117"><ele>36.0</ele><time>2026-04-04T10:08:05.295Z</time></trkpt><trkpt lat="45.9584917" lon="12.9884617"><ele>36.0</ele><time>2026-04-04T10:08:06.288Z</time></trkpt><trkpt lat="45.958415" lon="12.9886317"><ele>36.0</ele><time>2026-04-04T10:08:07.288Z</time></trkpt><trkpt lat="45.958335" lon="12.9888117"><ele>36.0</ele><time>2026-04-04T10:08:08.305Z</time></trkpt><trkpt lat="45.95825" lon="12.9889967"><ele>37.0</ele><time>2026-04-04T10:08:09.287Z</time></trkpt><trkpt lat="45.9581617" lon="12.9891817"><ele>38.0</ele><time>2026-04-04T10:08:10.287Z</time></trkpt><trkpt lat="45.9580783" lon="12.989365"><ele>39.0</ele><time>2026-04-04T10:08:11.296Z</time></trkpt><trkpt lat="45.958" lon="12.989535"><ele>39.0</ele><time>2026-04-04T10:08:12.288Z</time></trkpt><trkpt lat="45.95793" lon="12.98969"><ele>39.0</ele><time>2026-04-04T10:08:13.292Z</time></trkpt><trkpt lat="45.9578617" lon="12.98984"><ele>39.0</ele><time>2026-04-04T10:08:14.29Z</time></trkpt><trkpt lat="45.9577983" lon="12.9899733"><ele>39.0</ele><time>2026-04-04T10:08:15.289Z</time></trkpt><trkpt lat="45.95774" lon="12.9901"><ele>39.0</ele><time>2026-04-04T10:08:16.29Z</time></trkpt><trkpt lat="45.95769" lon="12.9902133"><ele>39.0</ele><time>2026-04-04T10:08:17.29Z</time></trkpt><trkpt lat="45.9576433" lon="12.990315"><ele>39.0</ele><time>2026-04-04T10:08:18.297Z</time></trkpt><trkpt lat="45.9576033" lon="12.9903917"><ele>39.0</ele><time>2026-04-04T10:08:19.293Z</time></trkpt><trkpt lat="45.957555" lon="12.9904617"><ele>39.0</ele><time>2026-04-04T10:08:21.292Z</time></trkpt><trkpt lat="45.9574717" lon="12.99054"><ele>38.0</ele><time>2026-04-04T10:08:38.289Z</time></trkpt></trkseg></trk></gpx>